VPCAL SKBO-GOBD
Flight info
| Callsign | VPCAL |
|---|---|
| Flight time | 7h 17m |
| Altitude | 37000 |
| Route | MAVDA UW20 AUC DCT MIQ UN669 ELJEZ/M085F370 DCT 2150N DCT 2340N/M085F390 DCT 22N036W DCT ERNEK/N0490F390 DCT EVKAS DCT BVT DCT MOGSA DCT PIVSA |
| Aircraft | B77L/H-SDE1E2E3FGHIJ2J3J4J5M1RWXY/LB1D1 |
Departure
| Time | 2026-04-25 12:16 |
|---|---|
| Airport | El Dorado International Airport (SKBO) |
Arrival
| Time | 2026-04-25 19:34 |
|---|---|
| Airport | Blaise Diagne International Airport (GOBD) |
| Time | Latitude | Longitude | Altitude | Speed | Heading |
|---|---|---|---|---|---|
| 2026-04-25 11:18 | 4.69764 | -74.14675 | 8356 ft | 0 kts | 216° |
| 2026-04-25 12:02 | 4.69773 | -74.14668 | 8352 ft | 4 kts | 230° |
| 2026-04-25 12:02 | 4.69781 | -74.14646 | 8351 ft | 4 kts | 281° |
| 2026-04-25 12:02 | 4.69771 | -74.14623 | 8351 ft | 3 kts | 308° |
| 2026-04-25 12:03 | 4.69766 | -74.14617 | 8354 ft | 0 kts | 309° |
| 2026-04-25 12:08 | 4.69767 | -74.14617 | 8354 ft | 1 kts | 309° |
| 2026-04-25 12:08 | 4.69778 | -74.14632 | 8351 ft | 4 kts | 309° |
| 2026-04-25 12:08 | 4.69800 | -74.14658 | 8353 ft | 7 kts | 310° |
| 2026-04-25 12:08 | 4.69841 | -74.14708 | 8355 ft | 11 kts | 308° |
| 2026-04-25 12:09 | 4.69889 | -74.14768 | 8352 ft | 11 kts | 308° |
| 2026-04-25 12:09 | 4.69934 | -74.14829 | 8352 ft | 11 kts | 298° |
| 2026-04-25 12:09 | 4.69911 | -74.14894 | 8350 ft | 11 kts | 217° |
| 2026-04-25 12:09 | 4.69856 | -74.14945 | 8352 ft | 11 kts | 245° |
| 2026-04-25 12:10 | 4.69881 | -74.15013 | 8354 ft | 11 kts | 308° |
| 2026-04-25 12:10 | 4.69930 | -74.15077 | 8350 ft | 13 kts | 307° |
| 2026-04-25 12:10 | 4.69995 | -74.15162 | 8354 ft | 18 kts | 307° |
| 2026-04-25 12:10 | 4.70078 | -74.15272 | 8354 ft | 22 kts | 307° |
| 2026-04-25 12:11 | 4.70172 | -74.15397 | 8354 ft | 23 kts | 306° |
| 2026-04-25 12:11 | 4.70267 | -74.15523 | 8358 ft | 23 kts | 307° |
| 2026-04-25 12:11 | 4.70363 | -74.15648 | 8354 ft | 23 kts | 308° |
| 2026-04-25 12:11 | 4.70458 | -74.15774 | 8357 ft | 23 kts | 307° |
| 2026-04-25 12:12 | 4.70553 | -74.15899 | 8356 ft | 23 kts | 307° |
| 2026-04-25 12:12 | 4.70649 | -74.16024 | 8354 ft | 23 kts | 307° |
| 2026-04-25 12:12 | 4.70744 | -74.16149 | 8355 ft | 23 kts | 307° |
| 2026-04-25 12:12 | 4.70838 | -74.16275 | 8357 ft | 23 kts | 307° |
| 2026-04-25 12:13 | 4.70934 | -74.16400 | 8355 ft | 23 kts | 307° |
| 2026-04-25 12:13 | 4.71029 | -74.16525 | 8354 ft | 23 kts | 308° |
| 2026-04-25 12:13 | 4.71123 | -74.16651 | 8357 ft | 23 kts | 307° |
| 2026-04-25 12:13 | 4.71200 | -74.16751 | 8356 ft | 13 kts | 307° |
| 2026-04-25 12:14 | 4.71185 | -74.16811 | 8356 ft | 10 kts | 211° |
| 2026-04-25 12:14 | 4.71155 | -74.16830 | 8352 ft | 0 kts | 214° |
| 2026-04-25 12:14 | 4.71151 | -74.16833 | 8351 ft | 3 kts | 214° |
| 2026-04-25 12:15 | 4.71111 | -74.16860 | 8355 ft | 11 kts | 214° |
| 2026-04-25 12:15 | 4.71025 | -74.16865 | 8352 ft | 16 kts | 146° |
| 2026-04-25 12:15 | 4.70921 | -74.16739 | 8354 ft | 44 kts | 127° |
| 2026-04-25 12:15 | 4.70597 | -74.16314 | 8355 ft | 108 kts | 127° |
| 2026-04-25 12:16 | 4.70021 | -74.15556 | 8354 ft | 164 kts | 127° |
| 2026-04-25 12:16 | 4.69238 | -74.14520 | 8386 ft | 202 kts | 128° |
| 2026-04-25 12:16 | 4.68384 | -74.13429 | 8927 ft | 199 kts | 129° |
| 2026-04-25 12:16 | 4.67395 | -74.12482 | 9479 ft | 198 kts | 161° |
| 2026-04-25 12:17 | 4.66052 | -74.12426 | 9745 ft | 201 kts | 205° |
| 2026-04-25 12:17 | 4.65009 | -74.13356 | 9956 ft | 208 kts | 249° |
| 2026-04-25 12:17 | 4.64888 | -74.14775 | 10253 ft | 208 kts | 282° |
| 2026-04-25 12:17 | 4.64916 | -74.16183 | 10691 ft | 203 kts | 258° |
| 2026-04-25 12:18 | 4.64298 | -74.17452 | 10937 ft | 207 kts | 231° |
| 2026-04-25 12:18 | 4.63380 | -74.18569 | 11337 ft | 208 kts | 235° |
| 2026-04-25 12:18 | 4.62530 | -74.19760 | 11575 ft | 222 kts | 239° |
| 2026-04-25 12:18 | 4.61610 | -74.21071 | 11721 ft | 239 kts | 230° |
| 2026-04-25 12:19 | 4.60416 | -74.23695 | 12000 ft | 270 kts | 269° |
| 2026-04-25 12:19 | 4.60237 | -74.26306 | 12241 ft | 298 kts | 263° |
| 2026-04-25 12:19 | 4.59581 | -74.28297 | 12641 ft | 307 kts | 236° |
| 2026-04-25 12:20 | 4.58092 | -74.29836 | 13521 ft | 307 kts | 223° |
| 2026-04-25 12:20 | 4.56515 | -74.31288 | 14372 ft | 310 kts | 226° |
| 2026-04-25 12:20 | 4.54975 | -74.32827 | 15095 ft | 314 kts | 226° |
| 2026-04-25 12:20 | 4.53427 | -74.34393 | 15845 ft | 318 kts | 226° |
| 2026-04-25 12:21 | 4.51708 | -74.35796 | 16472 ft | 324 kts | 206° |
| 2026-04-25 12:21 | 4.49516 | -74.36412 | 17119 ft | 333 kts | 183° |
| 2026-04-25 12:21 | 4.47219 | -74.36125 | 17878 ft | 337 kts | 160° |
| 2026-04-25 12:21 | 4.45184 | -74.34967 | 18640 ft | 340 kts | 137° |
| 2026-04-25 12:22 | 4.43733 | -74.33097 | 19278 ft | 344 kts | 115° |
| 2026-04-25 12:22 | 4.43085 | -74.30792 | 19902 ft | 347 kts | 93° |
| 2026-04-25 12:22 | 4.43336 | -74.28391 | 20533 ft | 349 kts | 72° |
| 2026-04-25 12:22 | 4.44353 | -74.26181 | 21204 ft | 351 kts | 56° |
| 2026-04-25 12:23 | 4.45729 | -74.24193 | 21846 ft | 355 kts | 52° |
| 2026-04-25 12:23 | 4.47265 | -74.22180 | 22089 ft | 374 kts | 51° |
| 2026-04-25 12:23 | 4.48913 | -74.20080 | 22264 ft | 393 kts | 51° |
| 2026-04-25 12:23 | 4.50641 | -74.17877 | 22415 ft | 411 kts | 51° |
| 2026-04-25 12:24 | 4.52437 | -74.15564 | 22557 ft | 429 kts | 52° |
| 2026-04-25 12:24 | 4.54289 | -74.13148 | 22711 ft | 444 kts | 52° |
| 2026-04-25 12:24 | 4.56179 | -74.10657 | 23034 ft | 454 kts | 52° |
| 2026-04-25 12:24 | 4.58100 | -74.08106 | 23470 ft | 460 kts | 52° |
| 2026-04-25 12:25 | 4.60030 | -74.05532 | 23846 ft | 463 kts | 53° |
| 2026-04-25 12:25 | 4.61960 | -74.02952 | 24203 ft | 461 kts | 53° |
| 2026-04-25 12:25 | 4.63883 | -74.00377 | 24193 ft | 462 kts | 53° |
| 2026-04-25 12:25 | 4.65817 | -73.97789 | 24208 ft | 463 kts | 53° |
| 2026-04-25 12:26 | 4.67751 | -73.95201 | 24201 ft | 463 kts | 53° |
| 2026-04-25 12:26 | 4.69682 | -73.92617 | 24191 ft | 463 kts | 53° |
| 2026-04-25 12:26 | 4.71615 | -73.90032 | 24195 ft | 463 kts | 53° |
| 2026-04-25 12:26 | 4.73551 | -73.87443 | 24391 ft | 466 kts | 53° |
| 2026-04-25 12:27 | 4.75504 | -73.84831 | 24844 ft | 468 kts | 53° |
| 2026-04-25 12:27 | 4.77431 | -73.82255 | 25319 ft | 469 kts | 53° |
| 2026-04-25 12:27 | 4.79396 | -73.79625 | 25715 ft | 473 kts | 53° |
| 2026-04-25 12:27 | 4.81376 | -73.76976 | 26086 ft | 476 kts | 53° |
| 2026-04-25 12:28 | 4.83368 | -73.74311 | 26500 ft | 479 kts | 53° |
| 2026-04-25 12:28 | 4.85375 | -73.71625 | 26930 ft | 482 kts | 53° |
| 2026-04-25 12:28 | 4.87388 | -73.68932 | 27323 ft | 484 kts | 54° |
| 2026-04-25 12:28 | 4.89417 | -73.66216 | 27730 ft | 487 kts | 54° |
| 2026-04-25 12:29 | 4.91451 | -73.63492 | 28108 ft | 490 kts | 54° |
| 2026-04-25 12:29 | 4.93500 | -73.60749 | 28489 ft | 493 kts | 54° |
| 2026-04-25 12:29 | 4.95558 | -73.57994 | 28871 ft | 495 kts | 54° |
| 2026-04-25 12:29 | 4.97629 | -73.55220 | 29243 ft | 498 kts | 54° |
| 2026-04-25 12:30 | 4.99714 | -73.52428 | 29572 ft | 500 kts | 54° |
| 2026-04-25 12:30 | 5.01804 | -73.49629 | 29862 ft | 503 kts | 54° |
| 2026-04-25 12:30 | 5.03907 | -73.46812 | 30189 ft | 505 kts | 54° |
| 2026-04-25 12:30 | 5.06019 | -73.43981 | 30462 ft | 507 kts | 54° |
| 2026-04-25 12:31 | 5.08137 | -73.41144 | 30742 ft | 509 kts | 54° |
| 2026-04-25 12:31 | 5.10258 | -73.38302 | 31087 ft | 508 kts | 55° |
| 2026-04-25 12:31 | 5.12347 | -73.35503 | 31523 ft | 505 kts | 55° |
| 2026-04-25 12:31 | 5.14448 | -73.32688 | 32028 ft | 502 kts | 55° |
| 2026-04-25 12:32 | 5.16533 | -73.29895 | 32435 ft | 500 kts | 56° |
| 2026-04-25 12:32 | 5.18617 | -73.27100 | 32833 ft | 499 kts | 56° |
| 2026-04-25 12:32 | 5.20694 | -73.24315 | 33223 ft | 498 kts | 56° |
| 2026-04-25 12:32 | 5.22770 | -73.21531 | 33603 ft | 497 kts | 56° |
| 2026-04-25 12:33 | 5.24843 | -73.18751 | 34015 ft | 496 kts | 56° |
| 2026-04-25 12:33 | 5.26907 | -73.15982 | 34415 ft | 495 kts | 56° |
| 2026-04-25 12:33 | 5.28964 | -73.13222 | 34740 ft | 494 kts | 56° |
| 2026-04-25 12:33 | 5.31019 | -73.10465 | 35054 ft | 493 kts | 56° |
| 2026-04-25 12:34 | 5.33067 | -73.07716 | 35343 ft | 492 kts | 56° |
| 2026-04-25 12:34 | 5.35117 | -73.04965 | 35638 ft | 491 kts | 56° |
| 2026-04-25 12:34 | 5.37157 | -73.02225 | 35972 ft | 489 kts | 56° |
| 2026-04-25 12:34 | 5.38506 | -73.00414 | 36175 ft | 489 kts | 56° |
| 2026-04-25 12:35 | 5.41229 | -72.96759 | 36610 ft | 488 kts | 56° |
| 2026-04-25 12:35 | 5.43260 | -72.94032 | 36889 ft | 488 kts | 56° |
| 2026-04-25 12:35 | 5.45296 | -72.91299 | 37040 ft | 491 kts | 56° |
| 2026-04-25 12:36 | 5.49401 | -72.85784 | 37129 ft | 493 kts | 56° |
| 2026-04-25 12:36 | 5.53486 | -72.80298 | 37147 ft | 488 kts | 56° |
| 2026-04-25 12:37 | 5.57543 | -72.74846 | 37147 ft | 485 kts | 56° |
| 2026-04-25 12:37 | 5.61554 | -72.69453 | 37154 ft | 485 kts | 56° |
| 2026-04-25 12:38 | 5.65589 | -72.64027 | 37119 ft | 485 kts | 56° |
| 2026-04-25 12:38 | 5.69633 | -72.58587 | 37141 ft | 486 kts | 56° |
| 2026-04-25 12:39 | 5.73679 | -72.53145 | 37124 ft | 487 kts | 56° |
| 2026-04-25 12:39 | 5.77737 | -72.47683 | 37107 ft | 488 kts | 56° |
| 2026-04-25 12:40 | 5.81798 | -72.42218 | 37142 ft | 488 kts | 56° |
| 2026-04-25 12:40 | 5.85861 | -72.36748 | 37096 ft | 489 kts | 56° |
| 2026-04-25 12:41 | 5.89916 | -72.31287 | 37102 ft | 487 kts | 56° |
| 2026-04-25 12:41 | 5.93972 | -72.25822 | 37099 ft | 488 kts | 56° |
| 2026-04-25 12:42 | 5.98028 | -72.20356 | 37094 ft | 487 kts | 56° |
| 2026-04-25 12:42 | 6.02083 | -72.14891 | 37087 ft | 488 kts | 56° |
| 2026-04-25 12:43 | 6.06135 | -72.09428 | 37051 ft | 487 kts | 56° |
| 2026-04-25 12:43 | 6.12193 | -72.01257 | 37073 ft | 487 kts | 56° |
| 2026-04-25 12:44 | 6.16238 | -71.95800 | 37034 ft | 487 kts | 56° |
| 2026-04-25 12:45 | 6.22304 | -71.87611 | 37052 ft | 487 kts | 56° |
| 2026-04-25 12:45 | 6.28389 | -71.79394 | 37027 ft | 488 kts | 56° |
| 2026-04-25 12:46 | 6.32428 | -71.73938 | 37026 ft | 489 kts | 56° |
| 2026-04-25 12:46 | 6.36501 | -71.68435 | 36995 ft | 490 kts | 56° |
| 2026-04-25 12:47 | 6.40573 | -71.62930 | 36996 ft | 490 kts | 56° |
| 2026-04-25 12:47 | 6.44650 | -71.57419 | 36999 ft | 490 kts | 56° |
| 2026-04-25 12:48 | 6.48696 | -71.51946 | 36985 ft | 491 kts | 55° |
| 2026-04-25 12:48 | 6.52777 | -71.46425 | 36994 ft | 491 kts | 55° |
| 2026-04-25 12:49 | 6.56854 | -71.40908 | 36998 ft | 492 kts | 55° |
| 2026-04-25 12:49 | 6.60935 | -71.35382 | 37004 ft | 492 kts | 55° |
| 2026-04-25 12:50 | 6.65021 | -71.29850 | 36996 ft | 493 kts | 55° |
| 2026-04-25 12:50 | 6.69105 | -71.24317 | 36990 ft | 493 kts | 55° |
| 2026-04-25 12:51 | 6.72503 | -71.19713 | 36991 ft | 493 kts | 55° |
| 2026-04-25 12:51 | 6.76587 | -71.14178 | 36988 ft | 493 kts | 55° |
| 2026-04-25 12:52 | 6.80669 | -71.08642 | 36991 ft | 492 kts | 55° |
| 2026-04-25 12:52 | 6.84751 | -71.03106 | 36993 ft | 492 kts | 55° |
| 2026-04-25 12:53 | 6.88831 | -70.97571 | 36988 ft | 492 kts | 55° |
| 2026-04-25 12:53 | 6.92909 | -70.92036 | 36992 ft | 492 kts | 55° |
| 2026-04-25 12:54 | 6.96984 | -70.86502 | 36986 ft | 492 kts | 54° |
| 2026-04-25 12:54 | 7.01067 | -70.80956 | 36987 ft | 493 kts | 54° |
| 2026-04-25 12:55 | 7.04465 | -70.76340 | 36971 ft | 494 kts | 54° |
| 2026-04-25 12:55 | 7.09586 | -70.70145 | 36972 ft | 496 kts | 47° |
| 2026-04-25 12:56 | 7.14419 | -70.65165 | 36974 ft | 497 kts | 46° |
| 2026-04-25 12:56 | 7.19270 | -70.60180 | 36972 ft | 499 kts | 47° |
| 2026-04-25 12:57 | 7.24113 | -70.55155 | 36985 ft | 500 kts | 47° |
| 2026-04-25 12:57 | 7.28959 | -70.50099 | 36992 ft | 502 kts | 47° |
| 2026-04-25 12:58 | 7.33811 | -70.45029 | 36991 ft | 503 kts | 47° |
| 2026-04-25 12:58 | 7.38670 | -70.39953 | 36996 ft | 503 kts | 47° |
| 2026-04-25 12:59 | 7.43524 | -70.34882 | 36991 ft | 502 kts | 47° |
| 2026-04-25 12:59 | 7.48372 | -70.29816 | 36994 ft | 501 kts | 47° |
| 2026-04-25 13:00 | 7.52391 | -70.25616 | 36994 ft | 501 kts | 47° |
| 2026-04-25 13:00 | 7.58007 | -70.19743 | 36998 ft | 500 kts | 47° |
| 2026-04-25 13:01 | 7.62837 | -70.14689 | 36994 ft | 500 kts | 47° |
| 2026-04-25 13:01 | 7.67666 | -70.09636 | 36993 ft | 500 kts | 47° |
| 2026-04-25 13:02 | 7.72493 | -70.04583 | 36995 ft | 500 kts | 47° |
| 2026-04-25 13:02 | 7.77311 | -69.99539 | 36995 ft | 500 kts | 47° |
| 2026-04-25 13:03 | 7.82135 | -69.94485 | 36995 ft | 500 kts | 47° |
| 2026-04-25 13:03 | 7.86926 | -69.89464 | 36992 ft | 500 kts | 47° |
| 2026-04-25 13:04 | 7.91751 | -69.84406 | 36996 ft | 500 kts | 47° |
| 2026-04-25 13:04 | 7.96585 | -69.79337 | 36994 ft | 501 kts | 47° |
| 2026-04-25 13:05 | 8.01430 | -69.74254 | 36995 ft | 502 kts | 47° |
| 2026-04-25 13:05 | 8.06256 | -69.69190 | 36996 ft | 503 kts | 47° |
| 2026-04-25 13:06 | 8.11110 | -69.64094 | 37002 ft | 504 kts | 47° |
| 2026-04-25 13:06 | 8.15969 | -69.58991 | 36999 ft | 504 kts | 47° |
| 2026-04-25 13:07 | 8.20836 | -69.53878 | 36998 ft | 505 kts | 47° |
| 2026-04-25 13:07 | 8.25702 | -69.48763 | 36997 ft | 505 kts | 47° |
| 2026-04-25 13:08 | 8.30573 | -69.43642 | 36998 ft | 506 kts | 47° |
| 2026-04-25 13:08 | 8.35450 | -69.38513 | 36998 ft | 506 kts | 47° |
| 2026-04-25 13:09 | 8.40326 | -69.33382 | 37011 ft | 507 kts | 47° |
| 2026-04-25 13:09 | 8.45183 | -69.28269 | 37002 ft | 507 kts | 47° |
| 2026-04-25 13:10 | 8.50066 | -69.23128 | 36991 ft | 507 kts | 47° |
| 2026-04-25 13:10 | 8.54946 | -69.17987 | 36989 ft | 507 kts | 47° |
| 2026-04-25 13:11 | 8.59830 | -69.12840 | 36996 ft | 507 kts | 47° |
| 2026-04-25 13:11 | 8.64713 | -69.07691 | 36993 ft | 507 kts | 47° |
| 2026-04-25 13:12 | 8.69600 | -69.02537 | 36999 ft | 507 kts | 47° |
| 2026-04-25 13:12 | 8.73663 | -68.98250 | 36992 ft | 508 kts | 47° |
| 2026-04-25 13:13 | 8.79342 | -68.92256 | 36995 ft | 508 kts | 47° |
| 2026-04-25 13:13 | 8.84233 | -68.87092 | 36998 ft | 508 kts | 47° |
| 2026-04-25 13:14 | 8.89123 | -68.81926 | 36993 ft | 508 kts | 47° |
| 2026-04-25 13:14 | 8.94011 | -68.76760 | 36994 ft | 508 kts | 47° |
| 2026-04-25 13:15 | 8.98892 | -68.71599 | 36988 ft | 507 kts | 47° |
| 2026-04-25 13:15 | 9.03774 | -68.66435 | 36988 ft | 507 kts | 47° |
| 2026-04-25 13:16 | 9.08646 | -68.61280 | 36989 ft | 507 kts | 47° |
| 2026-04-25 13:16 | 9.13487 | -68.56154 | 36989 ft | 507 kts | 47° |
| 2026-04-25 13:17 | 9.18364 | -68.50990 | 36989 ft | 507 kts | 47° |
| 2026-04-25 13:17 | 9.23238 | -68.45826 | 36992 ft | 507 kts | 47° |
| 2026-04-25 13:18 | 9.28121 | -68.40650 | 36992 ft | 507 kts | 47° |
| 2026-04-25 13:18 | 9.32999 | -68.35477 | 36995 ft | 508 kts | 47° |
| 2026-04-25 13:19 | 9.37879 | -68.30300 | 36990 ft | 508 kts | 47° |
| 2026-04-25 13:19 | 9.41112 | -68.26868 | 36992 ft | 508 kts | 47° |
| 2026-04-25 13:20 | 9.47621 | -68.19958 | 36992 ft | 509 kts | 47° |
| 2026-04-25 13:20 | 9.52507 | -68.14768 | 36991 ft | 509 kts | 47° |
| 2026-04-25 13:21 | 9.57405 | -68.09563 | 37002 ft | 510 kts | 47° |
| 2026-04-25 13:21 | 9.62305 | -68.04352 | 37004 ft | 511 kts | 47° |
| 2026-04-25 13:22 | 9.67212 | -67.99133 | 36998 ft | 512 kts | 47° |
| 2026-04-25 13:23 | 9.74578 | -67.91293 | 37012 ft | 512 kts | 47° |
| 2026-04-25 13:23 | 9.79493 | -67.86059 | 37005 ft | 512 kts | 47° |
| 2026-04-25 13:24 | 9.84378 | -67.80854 | 37015 ft | 513 kts | 47° |
| 2026-04-25 13:24 | 9.89298 | -67.75610 | 37025 ft | 513 kts | 47° |
| 2026-04-25 13:25 | 9.94218 | -67.70364 | 37024 ft | 513 kts | 47° |
| 2026-04-25 13:25 | 9.99141 | -67.65111 | 37023 ft | 514 kts | 47° |
| 2026-04-25 13:26 | 10.04068 | -67.59852 | 37019 ft | 514 kts | 47° |
| 2026-04-25 13:26 | 10.09001 | -67.54584 | 37014 ft | 514 kts | 47° |
| 2026-04-25 13:27 | 10.13931 | -67.49318 | 37025 ft | 514 kts | 48° |
| 2026-04-25 13:27 | 10.18856 | -67.44052 | 37025 ft | 514 kts | 48° |
| 2026-04-25 13:28 | 10.23753 | -67.38815 | 37022 ft | 514 kts | 48° |
| 2026-04-25 13:28 | 10.28681 | -67.33544 | 37019 ft | 514 kts | 48° |
| 2026-04-25 13:29 | 10.33608 | -67.28270 | 37013 ft | 514 kts | 48° |
| 2026-04-25 13:29 | 10.38523 | -67.23005 | 37026 ft | 514 kts | 48° |
| 2026-04-25 13:30 | 10.45906 | -67.15090 | 37014 ft | 515 kts | 48° |
| 2026-04-25 13:31 | 10.53302 | -67.07157 | 37008 ft | 515 kts | 48° |
| 2026-04-25 13:31 | 10.58231 | -67.01868 | 36958 ft | 515 kts | 48° |
| 2026-04-25 13:32 | 10.62810 | -66.96345 | 36962 ft | 513 kts | 57° |
| 2026-04-25 13:32 | 10.66783 | -66.90309 | 36972 ft | 515 kts | 58° |
| 2026-04-25 13:33 | 10.70762 | -66.84228 | 36982 ft | 518 kts | 58° |
| 2026-04-25 13:33 | 10.74795 | -66.78141 | 36968 ft | 518 kts | 58° |
| 2026-04-25 13:34 | 10.78837 | -66.72075 | 36978 ft | 518 kts | 58° |
| 2026-04-25 13:34 | 10.82875 | -66.66010 | 36966 ft | 517 kts | 58° |
| 2026-04-25 13:35 | 10.86905 | -66.59949 | 36967 ft | 517 kts | 58° |
| 2026-04-25 13:35 | 10.90905 | -66.53928 | 36967 ft | 516 kts | 58° |
| 2026-04-25 13:36 | 10.94932 | -66.47862 | 36961 ft | 516 kts | 58° |
| 2026-04-25 13:36 | 10.98951 | -66.41804 | 36962 ft | 516 kts | 58° |
| 2026-04-25 13:37 | 11.02971 | -66.35744 | 36966 ft | 516 kts | 58° |
| 2026-04-25 13:37 | 11.06354 | -66.30729 | 36962 ft | 517 kts | 57° |
| 2026-04-25 13:38 | 11.11123 | -66.23735 | 36965 ft | 517 kts | 57° |
| 2026-04-25 13:38 | 11.15219 | -66.17711 | 36967 ft | 517 kts | 57° |
| 2026-04-25 13:39 | 11.18648 | -66.12653 | 36966 ft | 517 kts | 57° |
| 2026-04-25 13:39 | 11.22711 | -66.06653 | 36966 ft | 518 kts | 57° |
| 2026-04-25 13:40 | 11.26798 | -66.00614 | 36966 ft | 518 kts | 57° |
| 2026-04-25 13:40 | 11.30885 | -65.94573 | 36968 ft | 518 kts | 57° |
| 2026-04-25 13:41 | 11.34974 | -65.88525 | 36962 ft | 518 kts | 57° |
| 2026-04-25 13:41 | 11.39059 | -65.82480 | 36965 ft | 518 kts | 57° |
| 2026-04-25 13:42 | 11.43126 | -65.76457 | 36968 ft | 518 kts | 57° |
| 2026-04-25 13:42 | 11.47213 | -65.70400 | 36968 ft | 519 kts | 57° |
| 2026-04-25 13:43 | 11.51301 | -65.64334 | 36969 ft | 519 kts | 57° |
| 2026-04-25 13:43 | 11.55389 | -65.58262 | 36961 ft | 520 kts | 57° |
| 2026-04-25 13:44 | 11.59485 | -65.52176 | 36970 ft | 521 kts | 57° |
| 2026-04-25 13:44 | 11.63587 | -65.46076 | 36969 ft | 521 kts | 57° |
| 2026-04-25 13:45 | 11.67693 | -65.39969 | 36973 ft | 522 kts | 57° |
| 2026-04-25 13:45 | 11.71866 | -65.33893 | 36966 ft | 523 kts | 56° |
| 2026-04-25 13:46 | 11.76079 | -65.27841 | 36964 ft | 523 kts | 56° |
| 2026-04-25 13:46 | 11.80289 | -65.21775 | 36971 ft | 523 kts | 56° |
| 2026-04-25 13:47 | 11.84487 | -65.15702 | 36971 ft | 524 kts | 56° |
| 2026-04-25 13:47 | 11.88660 | -65.09654 | 36967 ft | 524 kts | 56° |
| 2026-04-25 13:48 | 11.92863 | -65.03561 | 36968 ft | 524 kts | 56° |
| 2026-04-25 13:48 | 11.97067 | -64.97462 | 36972 ft | 525 kts | 56° |
| 2026-04-25 13:49 | 12.01267 | -64.91367 | 36968 ft | 525 kts | 56° |
| 2026-04-25 13:49 | 12.05465 | -64.85272 | 36967 ft | 524 kts | 56° |
| 2026-04-25 13:50 | 12.09660 | -64.79177 | 36969 ft | 524 kts | 56° |
| 2026-04-25 13:50 | 12.13852 | -64.73081 | 36972 ft | 524 kts | 56° |
| 2026-04-25 13:51 | 12.18046 | -64.66979 | 36967 ft | 524 kts | 56° |
| 2026-04-25 13:51 | 12.22228 | -64.60890 | 36970 ft | 523 kts | 56° |
| 2026-04-25 13:52 | 12.26387 | -64.54832 | 36974 ft | 523 kts | 56° |
| 2026-04-25 13:52 | 12.30567 | -64.48737 | 36972 ft | 523 kts | 56° |
| 2026-04-25 13:53 | 12.34750 | -64.42635 | 36970 ft | 524 kts | 56° |
| 2026-04-25 13:53 | 12.38918 | -64.36519 | 36974 ft | 524 kts | 57° |
| 2026-04-25 13:54 | 12.43053 | -64.30382 | 36976 ft | 523 kts | 57° |
| 2026-04-25 13:54 | 12.47181 | -64.24250 | 36971 ft | 523 kts | 57° |
| 2026-04-25 13:55 | 12.51284 | -64.18161 | 36970 ft | 522 kts | 57° |
| 2026-04-25 13:55 | 12.55407 | -64.12043 | 36971 ft | 523 kts | 57° |
| 2026-04-25 13:56 | 12.59537 | -64.05911 | 36979 ft | 523 kts | 57° |
| 2026-04-25 13:56 | 12.63666 | -63.99774 | 36977 ft | 523 kts | 57° |
| 2026-04-25 13:57 | 12.67790 | -63.93640 | 36977 ft | 523 kts | 57° |
| 2026-04-25 13:57 | 12.71912 | -63.87505 | 36978 ft | 522 kts | 57° |
| 2026-04-25 13:58 | 12.76031 | -63.81371 | 36979 ft | 522 kts | 57° |
| 2026-04-25 13:58 | 12.80126 | -63.75268 | 36982 ft | 522 kts | 57° |
| 2026-04-25 13:59 | 12.84253 | -63.69138 | 36977 ft | 523 kts | 57° |
| 2026-04-25 13:59 | 12.88529 | -63.63100 | 36982 ft | 523 kts | 52° |
| 2026-04-25 14:00 | 12.93171 | -63.57341 | 36981 ft | 524 kts | 51° |
| 2026-04-25 14:00 | 12.97844 | -63.51604 | 36984 ft | 524 kts | 51° |
| 2026-04-25 14:01 | 13.02500 | -63.45839 | 36985 ft | 525 kts | 51° |
| 2026-04-25 14:01 | 13.07135 | -63.40062 | 36981 ft | 525 kts | 52° |
| 2026-04-25 14:02 | 13.11153 | -63.35043 | 36981 ft | 525 kts | 52° |
| 2026-04-25 14:02 | 13.15791 | -63.29247 | 36980 ft | 525 kts | 52° |
| 2026-04-25 14:03 | 13.20427 | -63.23454 | 36979 ft | 525 kts | 52° |
| 2026-04-25 14:03 | 13.25033 | -63.17696 | 36981 ft | 525 kts | 52° |
| 2026-04-25 14:04 | 13.29662 | -63.11905 | 36978 ft | 525 kts | 52° |
| 2026-04-25 14:04 | 13.34287 | -63.06115 | 36981 ft | 524 kts | 52° |
| 2026-04-25 14:05 | 13.38907 | -63.00327 | 36979 ft | 524 kts | 52° |
| 2026-04-25 14:05 | 13.43533 | -62.94528 | 36982 ft | 524 kts | 52° |
| 2026-04-25 14:06 | 13.48157 | -62.88728 | 36982 ft | 524 kts | 52° |
| 2026-04-25 14:06 | 13.52775 | -62.82930 | 36981 ft | 524 kts | 52° |
| 2026-04-25 14:07 | 13.57396 | -62.77125 | 36981 ft | 525 kts | 52° |
| 2026-04-25 14:07 | 13.61991 | -62.71350 | 36987 ft | 525 kts | 52° |
| 2026-04-25 14:08 | 13.66649 | -62.65490 | 36991 ft | 526 kts | 52° |
| 2026-04-25 14:08 | 13.71279 | -62.59662 | 36987 ft | 527 kts | 52° |
| 2026-04-25 14:09 | 13.75883 | -62.53863 | 36986 ft | 527 kts | 52° |
| 2026-04-25 14:09 | 13.80523 | -62.48015 | 36983 ft | 528 kts | 52° |
| 2026-04-25 14:10 | 13.85168 | -62.42156 | 36989 ft | 529 kts | 52° |
| 2026-04-25 14:10 | 13.89827 | -62.36275 | 36990 ft | 529 kts | 52° |
| 2026-04-25 14:11 | 13.94482 | -62.30396 | 36991 ft | 530 kts | 52° |
| 2026-04-25 14:11 | 13.99110 | -62.24546 | 36994 ft | 530 kts | 52° |
| 2026-04-25 14:12 | 14.03771 | -62.18650 | 36985 ft | 531 kts | 52° |
| 2026-04-25 14:12 | 14.08432 | -62.12750 | 36993 ft | 531 kts | 52° |
| 2026-04-25 14:13 | 14.13107 | -62.06828 | 36990 ft | 532 kts | 52° |
| 2026-04-25 14:13 | 14.17776 | -62.00910 | 36985 ft | 532 kts | 52° |
| 2026-04-25 14:14 | 14.22440 | -61.94993 | 36987 ft | 532 kts | 52° |
| 2026-04-25 14:14 | 14.27113 | -61.89061 | 36987 ft | 532 kts | 52° |
| 2026-04-25 14:15 | 14.31784 | -61.83127 | 36987 ft | 532 kts | 52° |
| 2026-04-25 14:15 | 14.36412 | -61.77243 | 36988 ft | 532 kts | 52° |
| 2026-04-25 14:16 | 14.41074 | -61.71312 | 36992 ft | 532 kts | 52° |
| 2026-04-25 14:16 | 14.45733 | -61.65380 | 36987 ft | 532 kts | 52° |
| 2026-04-25 14:17 | 14.50387 | -61.59450 | 36991 ft | 532 kts | 52° |
| 2026-04-25 14:17 | 14.55049 | -61.53505 | 36989 ft | 532 kts | 52° |
| 2026-04-25 14:18 | 14.59705 | -61.47565 | 36990 ft | 532 kts | 52° |
| 2026-04-25 14:18 | 14.64360 | -61.41620 | 36998 ft | 533 kts | 52° |
| 2026-04-25 14:19 | 14.69025 | -61.35658 | 36994 ft | 533 kts | 52° |
| 2026-04-25 14:19 | 14.73683 | -61.29701 | 36988 ft | 533 kts | 52° |
| 2026-04-25 14:20 | 14.78341 | -61.23739 | 36988 ft | 533 kts | 52° |
| 2026-04-25 14:20 | 14.82966 | -61.17813 | 37003 ft | 534 kts | 52° |
| 2026-04-25 14:21 | 14.87627 | -61.11838 | 36994 ft | 534 kts | 52° |
| 2026-04-25 14:21 | 14.92289 | -61.05861 | 36998 ft | 534 kts | 52° |
| 2026-04-25 14:22 | 14.96955 | -60.99876 | 37002 ft | 534 kts | 52° |
| 2026-04-25 14:22 | 15.01614 | -60.93894 | 37004 ft | 534 kts | 52° |
| 2026-04-25 14:23 | 15.06270 | -60.87910 | 37008 ft | 534 kts | 52° |
| 2026-04-25 14:23 | 15.10934 | -60.81911 | 37002 ft | 534 kts | 52° |
| 2026-04-25 14:24 | 15.15592 | -60.75914 | 37003 ft | 534 kts | 52° |
| 2026-04-25 14:24 | 15.20216 | -60.69957 | 37007 ft | 534 kts | 52° |
| 2026-04-25 14:25 | 15.24869 | -60.63959 | 37004 ft | 534 kts | 52° |
| 2026-04-25 14:25 | 15.28766 | -60.58931 | 37013 ft | 534 kts | 51° |
| 2026-04-25 14:26 | 15.34176 | -60.51944 | 37003 ft | 535 kts | 51° |
| 2026-04-25 14:26 | 15.38070 | -60.46912 | 37004 ft | 535 kts | 51° |
| 2026-04-25 14:27 | 15.42726 | -60.40891 | 37005 ft | 535 kts | 51° |
| 2026-04-25 14:27 | 15.47382 | -60.34866 | 37006 ft | 535 kts | 52° |
| 2026-04-25 14:28 | 15.52014 | -60.28866 | 37008 ft | 536 kts | 52° |
| 2026-04-25 14:28 | 15.56674 | -60.22826 | 37012 ft | 536 kts | 51° |
| 2026-04-25 14:29 | 15.61336 | -60.16776 | 36996 ft | 536 kts | 51° |
| 2026-04-25 14:29 | 15.65996 | -60.10726 | 37002 ft | 536 kts | 51° |
| 2026-04-25 14:30 | 15.70649 | -60.04680 | 37009 ft | 536 kts | 51° |
| 2026-04-25 14:30 | 15.77635 | -59.95593 | 37008 ft | 536 kts | 51° |
| 2026-04-25 14:31 | 15.82258 | -59.89573 | 37010 ft | 536 kts | 51° |
| 2026-04-25 14:31 | 15.86907 | -59.83514 | 37010 ft | 536 kts | 51° |
| 2026-04-25 14:32 | 15.91556 | -59.77451 | 37004 ft | 536 kts | 51° |
| 2026-04-25 14:32 | 15.96204 | -59.71383 | 37003 ft | 536 kts | 51° |
| 2026-04-25 14:33 | 16.00844 | -59.65321 | 37004 ft | 536 kts | 52° |
| 2026-04-25 14:33 | 16.05488 | -59.59248 | 37015 ft | 536 kts | 51° |
| 2026-04-25 14:34 | 16.10130 | -59.53172 | 37012 ft | 536 kts | 51° |
| 2026-04-25 14:34 | 16.14740 | -59.47133 | 37014 ft | 536 kts | 51° |
| 2026-04-25 14:35 | 16.19383 | -59.41048 | 37011 ft | 537 kts | 51° |
| 2026-04-25 14:35 | 16.24023 | -59.34963 | 37013 ft | 537 kts | 51° |
| 2026-04-25 14:36 | 16.28695 | -59.28828 | 37010 ft | 537 kts | 51° |
| 2026-04-25 14:36 | 16.33299 | -59.22775 | 37005 ft | 537 kts | 51° |
| 2026-04-25 14:37 | 16.37945 | -59.16664 | 37017 ft | 538 kts | 51° |
| 2026-04-25 14:37 | 16.42589 | -59.10548 | 37020 ft | 538 kts | 51° |
| 2026-04-25 14:38 | 16.47233 | -59.04428 | 37017 ft | 538 kts | 51° |
| 2026-04-25 14:38 | 16.51875 | -58.98305 | 37015 ft | 538 kts | 51° |
| 2026-04-25 14:39 | 16.56510 | -58.92186 | 37005 ft | 538 kts | 51° |
| 2026-04-25 14:39 | 16.61147 | -58.86059 | 37022 ft | 538 kts | 51° |
| 2026-04-25 14:40 | 16.65760 | -58.79958 | 37012 ft | 539 kts | 51° |
| 2026-04-25 14:40 | 16.70399 | -58.73818 | 37014 ft | 539 kts | 51° |
| 2026-04-25 14:41 | 16.75039 | -58.67671 | 37030 ft | 539 kts | 51° |
| 2026-04-25 14:41 | 16.79677 | -58.61522 | 37030 ft | 539 kts | 51° |
| 2026-04-25 14:42 | 16.83562 | -58.56366 | 37015 ft | 540 kts | 51° |
| 2026-04-25 14:42 | 16.88956 | -58.49202 | 37016 ft | 540 kts | 51° |
| 2026-04-25 14:43 | 16.93603 | -58.43024 | 37027 ft | 540 kts | 51° |
| 2026-04-25 14:43 | 16.98238 | -58.36856 | 37031 ft | 540 kts | 51° |
| 2026-04-25 14:44 | 17.02875 | -58.30681 | 37014 ft | 540 kts | 51° |
| 2026-04-25 14:44 | 17.07508 | -58.24504 | 37019 ft | 540 kts | 51° |
| 2026-04-25 14:45 | 17.12145 | -58.18317 | 37019 ft | 540 kts | 51° |
| 2026-04-25 14:45 | 17.16777 | -58.12131 | 37019 ft | 540 kts | 51° |
| 2026-04-25 14:46 | 17.21408 | -58.05940 | 37023 ft | 540 kts | 51° |
| 2026-04-25 14:46 | 17.26034 | -57.99752 | 37022 ft | 540 kts | 51° |
| 2026-04-25 14:47 | 17.29884 | -57.94596 | 37022 ft | 540 kts | 51° |
| 2026-04-25 14:47 | 17.35266 | -57.87383 | 37032 ft | 541 kts | 51° |
| 2026-04-25 14:48 | 17.39895 | -57.81173 | 37027 ft | 541 kts | 51° |
| 2026-04-25 14:48 | 17.44526 | -57.74954 | 37027 ft | 541 kts | 51° |
| 2026-04-25 14:49 | 17.49155 | -57.68733 | 37026 ft | 541 kts | 51° |
| 2026-04-25 14:49 | 17.53778 | -57.62512 | 37031 ft | 541 kts | 51° |
| 2026-04-25 14:50 | 17.58409 | -57.56275 | 37032 ft | 541 kts | 51° |
| 2026-04-25 14:50 | 17.63008 | -57.50076 | 37029 ft | 542 kts | 51° |
| 2026-04-25 14:51 | 17.67637 | -57.43832 | 37030 ft | 542 kts | 51° |
| 2026-04-25 14:51 | 17.72269 | -57.37580 | 37029 ft | 542 kts | 51° |
| 2026-04-25 14:52 | 17.76891 | -57.31333 | 37033 ft | 542 kts | 51° |
| 2026-04-25 14:52 | 17.80729 | -57.26140 | 37034 ft | 542 kts | 51° |
| 2026-04-25 14:53 | 17.86133 | -57.18821 | 37034 ft | 543 kts | 51° |
| 2026-04-25 14:53 | 17.90754 | -57.12555 | 37032 ft | 543 kts | 51° |
| 2026-04-25 14:54 | 17.95378 | -57.06280 | 37037 ft | 543 kts | 51° |
| 2026-04-25 14:54 | 17.99858 | -56.99897 | 37033 ft | 543 kts | 57° |
| 2026-04-25 14:55 | 18.03385 | -56.92884 | 37045 ft | 543 kts | 65° |
| 2026-04-25 14:55 | 18.06554 | -56.85735 | 37035 ft | 544 kts | 65° |
| 2026-04-25 14:56 | 18.09770 | -56.78522 | 37039 ft | 544 kts | 65° |
| 2026-04-25 14:56 | 18.13018 | -56.71331 | 37034 ft | 544 kts | 65° |
| 2026-04-25 14:57 | 18.16280 | -56.64143 | 37035 ft | 544 kts | 65° |
| 2026-04-25 14:57 | 18.19517 | -56.57002 | 37032 ft | 544 kts | 65° |
| 2026-04-25 14:58 | 18.22767 | -56.49815 | 37036 ft | 543 kts | 65° |
| 2026-04-25 14:58 | 18.26010 | -56.42630 | 37034 ft | 543 kts | 65° |
| 2026-04-25 14:59 | 18.29239 | -56.35467 | 37035 ft | 542 kts | 65° |
| 2026-04-25 14:59 | 18.32471 | -56.28289 | 37034 ft | 542 kts | 65° |
| 2026-04-25 15:00 | 18.35697 | -56.21117 | 37037 ft | 542 kts | 65° |
| 2026-04-25 15:00 | 18.38905 | -56.13978 | 37046 ft | 542 kts | 65° |
| 2026-04-25 15:01 | 18.42123 | -56.06806 | 37042 ft | 542 kts | 65° |
| 2026-04-25 15:01 | 18.45343 | -55.99620 | 37041 ft | 543 kts | 65° |
| 2026-04-25 15:02 | 18.48563 | -55.92428 | 37041 ft | 543 kts | 65° |
| 2026-04-25 15:02 | 18.51784 | -55.85223 | 37042 ft | 543 kts | 65° |
| 2026-04-25 15:03 | 18.55006 | -55.78007 | 37041 ft | 544 kts | 65° |
| 2026-04-25 15:03 | 18.58225 | -55.70789 | 37053 ft | 544 kts | 65° |
| 2026-04-25 15:04 | 18.61445 | -55.63560 | 37042 ft | 545 kts | 65° |
| 2026-04-25 15:04 | 18.64664 | -55.56324 | 37045 ft | 545 kts | 65° |
| 2026-04-25 15:05 | 18.67862 | -55.49129 | 37044 ft | 545 kts | 65° |
| 2026-04-25 15:06 | 18.72685 | -55.38256 | 37042 ft | 545 kts | 65° |
| 2026-04-25 15:06 | 18.75895 | -55.31009 | 37046 ft | 544 kts | 65° |
| 2026-04-25 15:07 | 18.79106 | -55.23752 | 37043 ft | 545 kts | 65° |
| 2026-04-25 15:07 | 18.82290 | -55.16546 | 37048 ft | 545 kts | 65° |
| 2026-04-25 15:08 | 18.85489 | -55.09296 | 37045 ft | 545 kts | 65° |
| 2026-04-25 15:08 | 18.88687 | -55.02042 | 37047 ft | 545 kts | 65° |
| 2026-04-25 15:09 | 18.91879 | -54.94789 | 37050 ft | 544 kts | 65° |
| 2026-04-25 15:09 | 18.96661 | -54.83907 | 37059 ft | 544 kts | 65° |
| 2026-04-25 15:10 | 18.99850 | -54.76641 | 37047 ft | 545 kts | 65° |
| 2026-04-25 15:11 | 19.04089 | -54.66967 | 37056 ft | 545 kts | 65° |
| 2026-04-25 15:11 | 19.07274 | -54.59685 | 37048 ft | 545 kts | 65° |
| 2026-04-25 15:12 | 19.12045 | -54.48763 | 37044 ft | 545 kts | 65° |
| 2026-04-25 15:12 | 19.14687 | -54.42706 | 37068 ft | 545 kts | 65° |
| 2026-04-25 15:13 | 19.19985 | -54.30537 | 37057 ft | 546 kts | 65° |
| 2026-04-25 15:14 | 19.23160 | -54.23234 | 37049 ft | 546 kts | 65° |
| 2026-04-25 15:14 | 19.26329 | -54.15934 | 37056 ft | 546 kts | 65° |
| 2026-04-25 15:15 | 19.29500 | -54.08620 | 37053 ft | 546 kts | 65° |
| 2026-04-25 15:15 | 19.32662 | -54.01318 | 37067 ft | 546 kts | 65° |
| 2026-04-25 15:16 | 19.35824 | -53.94004 | 37056 ft | 546 kts | 65° |
| 2026-04-25 15:16 | 19.40545 | -53.83071 | 37056 ft | 547 kts | 65° |
| 2026-04-25 15:17 | 19.45282 | -53.72076 | 37057 ft | 547 kts | 65° |
| 2026-04-25 15:18 | 19.48437 | -53.64741 | 37058 ft | 547 kts | 65° |
| 2026-04-25 15:18 | 19.53162 | -53.53737 | 37054 ft | 547 kts | 65° |
| 2026-04-25 15:19 | 19.55783 | -53.47624 | 37060 ft | 547 kts | 65° |
| 2026-04-25 15:19 | 19.59465 | -53.39028 | 37057 ft | 548 kts | 65° |
| 2026-04-25 15:20 | 19.62616 | -53.31657 | 37056 ft | 548 kts | 65° |
| 2026-04-25 15:20 | 19.65764 | -53.24285 | 37058 ft | 549 kts | 65° |
| 2026-04-25 15:21 | 19.68910 | -53.16907 | 37067 ft | 549 kts | 65° |
| 2026-04-25 15:21 | 19.72037 | -53.09564 | 37061 ft | 550 kts | 65° |
| 2026-04-25 15:22 | 19.75184 | -53.02164 | 37060 ft | 550 kts | 65° |
| 2026-04-25 15:22 | 19.78326 | -52.94766 | 37062 ft | 550 kts | 65° |
| 2026-04-25 15:23 | 19.81466 | -52.87362 | 37058 ft | 550 kts | 65° |
| 2026-04-25 15:23 | 19.84605 | -52.79953 | 37060 ft | 550 kts | 65° |
| 2026-04-25 15:24 | 19.87742 | -52.72535 | 37056 ft | 550 kts | 65° |
| 2026-04-25 15:24 | 19.90351 | -52.66358 | 37063 ft | 550 kts | 65° |
| 2026-04-25 15:25 | 19.93992 | -52.57728 | 37060 ft | 551 kts | 65° |
| 2026-04-25 15:25 | 19.97123 | -52.50294 | 37058 ft | 551 kts | 65° |
| 2026-04-25 15:26 | 20.00254 | -52.42853 | 37064 ft | 550 kts | 65° |
| 2026-04-25 15:26 | 20.03373 | -52.35425 | 37062 ft | 550 kts | 65° |
| 2026-04-25 15:27 | 20.06490 | -52.27994 | 37056 ft | 550 kts | 65° |
| 2026-04-25 15:28 | 20.11154 | -52.16857 | 37062 ft | 549 kts | 65° |
| 2026-04-25 15:28 | 20.14255 | -52.09438 | 37060 ft | 549 kts | 65° |
| 2026-04-25 15:29 | 20.17332 | -52.02066 | 37060 ft | 548 kts | 65° |
| 2026-04-25 15:29 | 20.20434 | -51.94625 | 37210 ft | 552 kts | 65° |
| 2026-04-25 15:29 | 20.21990 | -51.90889 | 37566 ft | 550 kts | 65° |
| 2026-04-25 15:30 | 20.23537 | -51.87170 | 37992 ft | 548 kts | 65° |
| 2026-04-25 15:30 | 20.25079 | -51.83462 | 38398 ft | 545 kts | 65° |
| 2026-04-25 15:30 | 20.26608 | -51.79781 | 38765 ft | 543 kts | 65° |
| 2026-04-25 15:30 | 20.28138 | -51.76098 | 39000 ft | 543 kts | 65° |
| 2026-04-25 15:31 | 20.29669 | -51.72408 | 39037 ft | 545 kts | 65° |
| 2026-04-25 15:31 | 20.32728 | -51.65028 | 39056 ft | 543 kts | 65° |
| 2026-04-25 15:32 | 20.35763 | -51.57695 | 39060 ft | 539 kts | 65° |
| 2026-04-25 15:32 | 20.38783 | -51.50388 | 39057 ft | 538 kts | 65° |
| 2026-04-25 15:33 | 20.43300 | -51.39443 | 39063 ft | 538 kts | 65° |
| 2026-04-25 15:33 | 20.46313 | -51.32129 | 39058 ft | 538 kts | 65° |
| 2026-04-25 15:34 | 20.49323 | -51.24811 | 39068 ft | 539 kts | 65° |
| 2026-04-25 15:34 | 20.51826 | -51.18716 | 39076 ft | 540 kts | 65° |
| 2026-04-25 15:35 | 20.56840 | -51.06488 | 39070 ft | 542 kts | 65° |
| 2026-04-25 15:36 | 20.61378 | -50.95398 | 39066 ft | 544 kts | 65° |
| 2026-04-25 15:36 | 20.64406 | -50.87984 | 39069 ft | 545 kts | 65° |
| 2026-04-25 15:37 | 20.67435 | -50.80556 | 39084 ft | 545 kts | 65° |
| 2026-04-25 15:37 | 20.70464 | -50.73116 | 39074 ft | 547 kts | 65° |
| 2026-04-25 15:38 | 20.73498 | -50.65656 | 39068 ft | 547 kts | 65° |
| 2026-04-25 15:38 | 20.76528 | -50.58194 | 39072 ft | 547 kts | 65° |
| 2026-04-25 15:39 | 20.79539 | -50.50766 | 39066 ft | 547 kts | 65° |
| 2026-04-25 15:39 | 20.82561 | -50.43300 | 39084 ft | 547 kts | 65° |
| 2026-04-25 15:40 | 20.84581 | -50.38303 | 39073 ft | 547 kts | 65° |
| 2026-04-25 15:40 | 20.88599 | -50.28352 | 39072 ft | 547 kts | 65° |
| 2026-04-25 15:41 | 20.91611 | -50.20877 | 39072 ft | 547 kts | 65° |
| 2026-04-25 15:41 | 20.94620 | -50.13402 | 39068 ft | 547 kts | 65° |
| 2026-04-25 15:42 | 20.97623 | -50.05926 | 39084 ft | 547 kts | 65° |
| 2026-04-25 15:42 | 21.00440 | -49.98364 | 39061 ft | 548 kts | 71° |
| 2026-04-25 15:43 | 21.02334 | -49.90504 | 39072 ft | 548 kts | 76° |
| 2026-04-25 15:43 | 21.04101 | -49.82551 | 39073 ft | 549 kts | 76° |
| 2026-04-25 15:44 | 21.05896 | -49.74603 | 39070 ft | 549 kts | 76° |
| 2026-04-25 15:44 | 21.07726 | -49.66659 | 39071 ft | 549 kts | 76° |
| 2026-04-25 15:45 | 21.09563 | -49.58720 | 39084 ft | 549 kts | 76° |
| 2026-04-25 15:45 | 21.10779 | -49.53452 | 39067 ft | 549 kts | 75° |
| 2026-04-25 15:46 | 21.13211 | -49.42875 | 39077 ft | 550 kts | 75° |
| 2026-04-25 15:46 | 21.15034 | -49.34913 | 39063 ft | 550 kts | 75° |
| 2026-04-25 15:47 | 21.16853 | -49.26953 | 39070 ft | 550 kts | 76° |
| 2026-04-25 15:47 | 21.18670 | -49.18985 | 39073 ft | 550 kts | 76° |
| 2026-04-25 15:48 | 21.20484 | -49.11015 | 39079 ft | 550 kts | 76° |
| 2026-04-25 15:48 | 21.22291 | -49.03048 | 39069 ft | 550 kts | 75° |
| 2026-04-25 15:49 | 21.24097 | -48.95075 | 39083 ft | 550 kts | 75° |
| 2026-04-25 15:49 | 21.25896 | -48.87113 | 39068 ft | 550 kts | 75° |
| 2026-04-25 15:50 | 21.27681 | -48.79196 | 39070 ft | 549 kts | 75° |
| 2026-04-25 15:50 | 21.29473 | -48.71226 | 39077 ft | 549 kts | 75° |
| 2026-04-25 15:51 | 21.30670 | -48.65897 | 39072 ft | 549 kts | 75° |
| 2026-04-25 15:51 | 21.33044 | -48.55289 | 39078 ft | 549 kts | 75° |
| 2026-04-25 15:52 | 21.34821 | -48.47333 | 39076 ft | 548 kts | 75° |
| 2026-04-25 15:52 | 21.36593 | -48.39383 | 39072 ft | 547 kts | 75° |
| 2026-04-25 15:53 | 21.38357 | -48.31443 | 39075 ft | 547 kts | 75° |
| 2026-04-25 15:53 | 21.40118 | -48.23503 | 39077 ft | 546 kts | 75° |
| 2026-04-25 15:54 | 21.41875 | -48.15562 | 39081 ft | 546 kts | 75° |
| 2026-04-25 15:54 | 21.43614 | -48.07683 | 39074 ft | 546 kts | 75° |
| 2026-04-25 15:55 | 21.45362 | -47.99745 | 39067 ft | 547 kts | 75° |
| 2026-04-25 15:55 | 21.47108 | -47.91797 | 39088 ft | 547 kts | 76° |
| 2026-04-25 15:56 | 21.48852 | -47.83837 | 39078 ft | 548 kts | 76° |
| 2026-04-25 15:56 | 21.50594 | -47.75871 | 39077 ft | 548 kts | 76° |
| 2026-04-25 15:57 | 21.52042 | -47.69228 | 39092 ft | 549 kts | 76° |
| 2026-04-25 15:57 | 21.53778 | -47.61247 | 39077 ft | 549 kts | 75° |
| 2026-04-25 15:58 | 21.55512 | -47.53264 | 39069 ft | 548 kts | 75° |
| 2026-04-25 15:58 | 21.57240 | -47.45284 | 39071 ft | 547 kts | 75° |
| 2026-04-25 15:59 | 21.58950 | -47.37370 | 39082 ft | 547 kts | 75° |
| 2026-04-25 15:59 | 21.60666 | -47.29407 | 39083 ft | 547 kts | 75° |
| 2026-04-25 16:00 | 21.62092 | -47.22780 | 39088 ft | 547 kts | 75° |
| 2026-04-25 16:00 | 21.64088 | -47.13473 | 39081 ft | 546 kts | 75° |
| 2026-04-25 16:01 | 21.65792 | -47.05509 | 39082 ft | 546 kts | 75° |
| 2026-04-25 16:01 | 21.67478 | -46.97608 | 39080 ft | 545 kts | 75° |
| 2026-04-25 16:02 | 21.69180 | -46.89615 | 39079 ft | 545 kts | 75° |
| 2026-04-25 16:02 | 21.70855 | -46.81727 | 39083 ft | 545 kts | 75° |
| 2026-04-25 16:03 | 21.72540 | -46.73775 | 39091 ft | 545 kts | 75° |
| 2026-04-25 16:03 | 21.74222 | -46.65815 | 39085 ft | 546 kts | 75° |
| 2026-04-25 16:04 | 21.75901 | -46.57849 | 39086 ft | 546 kts | 75° |
| 2026-04-25 16:04 | 21.77579 | -46.49870 | 39086 ft | 547 kts | 75° |
| 2026-04-25 16:05 | 21.79257 | -46.41868 | 39085 ft | 548 kts | 75° |
| 2026-04-25 16:06 | 21.81757 | -46.29912 | 39100 ft | 548 kts | 76° |
| 2026-04-25 16:06 | 21.83428 | -46.21896 | 39092 ft | 550 kts | 76° |
| 2026-04-25 16:07 | 21.85098 | -46.13858 | 39089 ft | 550 kts | 76° |
| 2026-04-25 16:07 | 21.86767 | -46.05811 | 39086 ft | 550 kts | 76° |
| 2026-04-25 16:08 | 21.88423 | -45.97804 | 39085 ft | 551 kts | 76° |
| 2026-04-25 16:08 | 21.90082 | -45.89758 | 39088 ft | 550 kts | 76° |
| 2026-04-25 16:09 | 21.91737 | -45.81714 | 39097 ft | 551 kts | 76° |
| 2026-04-25 16:09 | 21.93393 | -45.73649 | 39093 ft | 551 kts | 76° |
| 2026-04-25 16:10 | 21.95043 | -45.65585 | 39087 ft | 551 kts | 76° |
| 2026-04-25 16:10 | 21.96688 | -45.57528 | 39081 ft | 551 kts | 76° |
| 2026-04-25 16:11 | 21.98328 | -45.49469 | 39093 ft | 550 kts | 76° |
| 2026-04-25 16:11 | 21.99964 | -45.41416 | 39098 ft | 551 kts | 76° |
| 2026-04-25 16:12 | 22.01590 | -45.33387 | 39088 ft | 551 kts | 76° |
| 2026-04-25 16:12 | 22.03221 | -45.25314 | 39086 ft | 551 kts | 76° |
| 2026-04-25 16:13 | 22.04848 | -45.17238 | 39085 ft | 551 kts | 76° |
| 2026-04-25 16:13 | 22.06471 | -45.09157 | 39087 ft | 551 kts | 76° |
| 2026-04-25 16:14 | 22.08094 | -45.01062 | 39100 ft | 551 kts | 76° |
| 2026-04-25 16:14 | 22.09711 | -44.92971 | 39084 ft | 552 kts | 76° |
| 2026-04-25 16:15 | 22.11327 | -44.84861 | 39089 ft | 552 kts | 76° |
| 2026-04-25 16:15 | 22.12937 | -44.76764 | 39091 ft | 553 kts | 76° |
| 2026-04-25 16:16 | 22.14533 | -44.68709 | 39091 ft | 553 kts | 76° |
| 2026-04-25 16:16 | 22.16139 | -44.60589 | 39095 ft | 553 kts | 76° |
| 2026-04-25 16:17 | 22.17741 | -44.52462 | 39098 ft | 554 kts | 76° |
| 2026-04-25 16:17 | 22.19340 | -44.44331 | 39094 ft | 554 kts | 76° |
| 2026-04-25 16:18 | 22.20936 | -44.36190 | 39091 ft | 554 kts | 76° |
| 2026-04-25 16:18 | 22.22528 | -44.28049 | 39091 ft | 554 kts | 76° |
| 2026-04-25 16:19 | 22.24117 | -44.19898 | 39102 ft | 554 kts | 76° |
| 2026-04-25 16:19 | 22.25691 | -44.11807 | 39093 ft | 555 kts | 76° |
| 2026-04-25 16:20 | 22.28063 | -43.99563 | 39104 ft | 555 kts | 76° |
| 2026-04-25 16:21 | 22.30428 | -43.87307 | 39097 ft | 555 kts | 76° |
| 2026-04-25 16:21 | 22.31999 | -43.79137 | 39092 ft | 556 kts | 76° |
| 2026-04-25 16:22 | 22.33566 | -43.70962 | 39102 ft | 556 kts | 76° |
| 2026-04-25 16:22 | 22.35129 | -43.62788 | 39107 ft | 556 kts | 76° |
| 2026-04-25 16:23 | 22.36689 | -43.54607 | 39097 ft | 556 kts | 76° |
| 2026-04-25 16:23 | 22.38235 | -43.46472 | 39094 ft | 556 kts | 76° |
| 2026-04-25 16:24 | 22.39786 | -43.38290 | 39100 ft | 556 kts | 76° |
| 2026-04-25 16:24 | 22.41332 | -43.30110 | 39097 ft | 556 kts | 76° |
| 2026-04-25 16:25 | 22.42874 | -43.21932 | 39101 ft | 555 kts | 76° |
| 2026-04-25 16:25 | 22.44414 | -43.13735 | 39102 ft | 555 kts | 76° |
| 2026-04-25 16:26 | 22.45946 | -43.05561 | 39101 ft | 555 kts | 76° |
| 2026-04-25 16:26 | 22.47477 | -42.97366 | 39100 ft | 555 kts | 76° |
| 2026-04-25 16:27 | 22.49002 | -42.89178 | 39100 ft | 555 kts | 76° |
| 2026-04-25 16:27 | 22.50514 | -42.81039 | 39101 ft | 555 kts | 76° |
| 2026-04-25 16:28 | 22.52029 | -42.72856 | 39100 ft | 555 kts | 76° |
| 2026-04-25 16:28 | 22.53541 | -42.64672 | 39100 ft | 554 kts | 76° |
| 2026-04-25 16:29 | 22.55046 | -42.56492 | 39107 ft | 554 kts | 76° |
| 2026-04-25 16:29 | 22.56550 | -42.48303 | 39102 ft | 554 kts | 76° |
| 2026-04-25 16:30 | 22.58039 | -42.40163 | 39107 ft | 554 kts | 76° |
| 2026-04-25 16:30 | 22.59534 | -42.31970 | 39104 ft | 554 kts | 76° |
| 2026-04-25 16:31 | 22.61027 | -42.23764 | 39103 ft | 554 kts | 76° |
| 2026-04-25 16:31 | 22.62511 | -42.15585 | 39102 ft | 554 kts | 76° |
| 2026-04-25 16:32 | 22.63985 | -42.07430 | 39102 ft | 554 kts | 76° |
| 2026-04-25 16:32 | 22.65463 | -41.99234 | 39103 ft | 554 kts | 76° |
| 2026-04-25 16:33 | 22.66937 | -41.91034 | 39104 ft | 554 kts | 76° |
| 2026-04-25 16:33 | 22.68406 | -41.82835 | 39103 ft | 554 kts | 76° |
| 2026-04-25 16:34 | 22.69871 | -41.74636 | 39110 ft | 554 kts | 76° |
| 2026-04-25 16:34 | 22.71331 | -41.66436 | 39106 ft | 555 kts | 76° |
| 2026-04-25 16:35 | 22.72788 | -41.58233 | 39099 ft | 555 kts | 76° |
| 2026-04-25 16:35 | 22.74231 | -41.50077 | 39107 ft | 554 kts | 76° |
| 2026-04-25 16:36 | 22.75680 | -41.41867 | 39103 ft | 555 kts | 76° |
| 2026-04-25 16:36 | 22.77124 | -41.33660 | 39109 ft | 555 kts | 76° |
| 2026-04-25 16:37 | 22.78565 | -41.25439 | 39106 ft | 555 kts | 76° |
| 2026-04-25 16:37 | 22.80003 | -41.17214 | 39106 ft | 555 kts | 76° |
| 2026-04-25 16:38 | 22.81435 | -41.08994 | 39107 ft | 555 kts | 76° |
| 2026-04-25 16:38 | 22.82865 | -41.00764 | 39106 ft | 555 kts | 76° |
| 2026-04-25 16:39 | 22.84279 | -40.92595 | 39106 ft | 555 kts | 76° |
| 2026-04-25 16:39 | 22.85699 | -40.84372 | 39107 ft | 555 kts | 76° |
| 2026-04-25 16:40 | 22.87115 | -40.76142 | 39101 ft | 555 kts | 76° |
| 2026-04-25 16:40 | 22.88529 | -40.67900 | 39113 ft | 556 kts | 76° |
| 2026-04-25 16:41 | 22.89939 | -40.59651 | 39108 ft | 556 kts | 76° |
| 2026-04-25 16:41 | 22.92047 | -40.47269 | 39118 ft | 556 kts | 76° |
| 2026-04-25 16:42 | 22.93440 | -40.39052 | 39105 ft | 557 kts | 76° |
| 2026-04-25 16:42 | 22.94838 | -40.30785 | 39112 ft | 557 kts | 76° |
| 2026-04-25 16:43 | 22.96232 | -40.22508 | 39111 ft | 558 kts | 76° |
| 2026-04-25 16:43 | 22.97623 | -40.14222 | 39108 ft | 558 kts | 76° |
| 2026-04-25 16:44 | 22.98966 | -40.05925 | 39108 ft | 560 kts | 80° |
| 2026-04-25 16:44 | 22.99057 | -39.97452 | 39119 ft | 564 kts | 94° |
| 2026-04-25 16:45 | 22.97928 | -39.90468 | 39114 ft | 564 kts | 104° |
| 2026-04-25 16:45 | 22.95567 | -39.80915 | 39104 ft | 564 kts | 105° |
| 2026-04-25 16:46 | 22.93852 | -39.74019 | 39111 ft | 564 kts | 105° |
| 2026-04-25 16:46 | 22.92193 | -39.67170 | 39108 ft | 564 kts | 105° |
| 2026-04-25 16:47 | 22.89911 | -39.57585 | 39116 ft | 564 kts | 104° |
| 2026-04-25 16:47 | 22.87949 | -39.49339 | 39107 ft | 565 kts | 104° |
| 2026-04-25 16:48 | 22.85975 | -39.41089 | 39109 ft | 564 kts | 105° |
| 2026-04-25 16:48 | 22.83994 | -39.32847 | 39117 ft | 565 kts | 105° |
| 2026-04-25 16:49 | 22.82005 | -39.24593 | 39112 ft | 566 kts | 105° |
| 2026-04-25 16:49 | 22.80023 | -39.16387 | 39114 ft | 568 kts | 105° |
| 2026-04-25 16:50 | 22.78017 | -39.08099 | 39112 ft | 570 kts | 105° |
| 2026-04-25 16:50 | 22.75999 | -38.99780 | 39093 ft | 571 kts | 105° |
| 2026-04-25 16:51 | 22.73974 | -38.91456 | 39109 ft | 571 kts | 105° |
| 2026-04-25 16:51 | 22.72290 | -38.84546 | 39112 ft | 571 kts | 105° |
| 2026-04-25 16:52 | 22.69913 | -38.74820 | 39108 ft | 571 kts | 105° |
| 2026-04-25 16:52 | 22.67875 | -38.66501 | 39115 ft | 571 kts | 105° |
| 2026-04-25 16:53 | 22.64813 | -38.54039 | 39109 ft | 571 kts | 105° |
| 2026-04-25 16:54 | 22.62785 | -38.45807 | 39100 ft | 569 kts | 105° |
| 2026-04-25 16:54 | 22.60741 | -38.37536 | 39107 ft | 568 kts | 105° |
| 2026-04-25 16:55 | 22.58694 | -38.29268 | 39108 ft | 568 kts | 105° |
| 2026-04-25 16:55 | 22.56648 | -38.21025 | 39109 ft | 567 kts | 105° |
| 2026-04-25 16:56 | 22.54595 | -38.12773 | 39107 ft | 567 kts | 105° |
| 2026-04-25 16:56 | 22.52540 | -38.04532 | 39104 ft | 567 kts | 105° |
| 2026-04-25 16:57 | 22.50479 | -37.96288 | 39107 ft | 568 kts | 105° |
| 2026-04-25 16:57 | 22.48427 | -37.88097 | 39109 ft | 568 kts | 105° |
| 2026-04-25 16:58 | 22.46352 | -37.79836 | 39103 ft | 569 kts | 105° |
| 2026-04-25 16:58 | 22.44272 | -37.71569 | 39109 ft | 570 kts | 105° |
| 2026-04-25 16:59 | 22.42185 | -37.63299 | 39103 ft | 571 kts | 105° |
| 2026-04-25 16:59 | 22.40091 | -37.55017 | 39084 ft | 571 kts | 105° |
| 2026-04-25 17:00 | 22.37990 | -37.46728 | 39112 ft | 571 kts | 105° |
| 2026-04-25 17:00 | 22.35886 | -37.38448 | 39109 ft | 571 kts | 105° |
| 2026-04-25 17:01 | 22.33778 | -37.30168 | 39105 ft | 571 kts | 105° |
| 2026-04-25 17:01 | 22.31666 | -37.21893 | 39115 ft | 571 kts | 105° |
| 2026-04-25 17:02 | 22.29564 | -37.13674 | 39102 ft | 572 kts | 105° |
| 2026-04-25 17:02 | 22.27441 | -37.05393 | 39080 ft | 571 kts | 105° |
| 2026-04-25 17:03 | 22.25318 | -36.97132 | 39107 ft | 570 kts | 105° |
| 2026-04-25 17:03 | 22.23193 | -36.88881 | 39102 ft | 570 kts | 105° |
| 2026-04-25 17:04 | 22.21063 | -36.80629 | 39103 ft | 570 kts | 105° |
| 2026-04-25 17:04 | 22.18932 | -36.72395 | 39113 ft | 570 kts | 105° |
| 2026-04-25 17:05 | 22.16795 | -36.64151 | 39102 ft | 570 kts | 105° |
| 2026-04-25 17:05 | 22.13594 | -36.51842 | 39089 ft | 570 kts | 105° |
| 2026-04-25 17:06 | 22.11450 | -36.43616 | 39100 ft | 569 kts | 105° |
| 2026-04-25 17:06 | 22.09302 | -36.35398 | 39104 ft | 569 kts | 105° |
| 2026-04-25 17:07 | 22.07152 | -36.27188 | 39103 ft | 569 kts | 105° |
| 2026-04-25 17:07 | 22.04997 | -36.18978 | 39104 ft | 569 kts | 105° |
| 2026-04-25 17:08 | 22.02841 | -36.10778 | 39103 ft | 569 kts | 106° |
| 2026-04-25 17:08 | 22.00694 | -36.02629 | 39086 ft | 569 kts | 106° |
| 2026-04-25 17:09 | 21.98195 | -35.94553 | 39104 ft | 567 kts | 111° |
| 2026-04-25 17:09 | 21.95364 | -35.86625 | 39101 ft | 567 kts | 112° |
| 2026-04-25 17:10 | 21.92513 | -35.78697 | 39102 ft | 567 kts | 112° |
| 2026-04-25 17:10 | 21.89695 | -35.70765 | 39109 ft | 567 kts | 111° |
| 2026-04-25 17:11 | 21.86889 | -35.62816 | 39101 ft | 568 kts | 111° |
| 2026-04-25 17:11 | 21.84082 | -35.54868 | 39089 ft | 567 kts | 111° |
| 2026-04-25 17:12 | 21.81274 | -35.46944 | 39107 ft | 567 kts | 111° |
| 2026-04-25 17:12 | 21.78458 | -35.39018 | 39100 ft | 567 kts | 112° |
| 2026-04-25 17:13 | 21.76590 | -35.33769 | 39094 ft | 567 kts | 112° |
| 2026-04-25 17:13 | 21.72813 | -35.23172 | 39104 ft | 567 kts | 111° |
| 2026-04-25 17:14 | 21.70004 | -35.15304 | 39098 ft | 567 kts | 112° |
| 2026-04-25 17:14 | 21.67172 | -35.07388 | 39095 ft | 566 kts | 112° |
| 2026-04-25 17:15 | 21.64340 | -34.99483 | 39095 ft | 566 kts | 112° |
| 2026-04-25 17:15 | 21.61507 | -34.91591 | 39098 ft | 566 kts | 112° |
| 2026-04-25 17:16 | 21.58670 | -34.83701 | 39092 ft | 566 kts | 112° |
| 2026-04-25 17:16 | 21.55826 | -34.75803 | 39093 ft | 566 kts | 112° |
| 2026-04-25 17:17 | 21.52996 | -34.67958 | 39078 ft | 566 kts | 112° |
| 2026-04-25 17:17 | 21.50149 | -34.60079 | 39091 ft | 566 kts | 112° |
| 2026-04-25 17:18 | 21.47295 | -34.52197 | 39092 ft | 565 kts | 112° |
| 2026-04-25 17:18 | 21.44443 | -34.44330 | 39097 ft | 565 kts | 112° |
| 2026-04-25 17:19 | 21.41585 | -34.36463 | 39089 ft | 566 kts | 112° |
| 2026-04-25 17:19 | 21.38722 | -34.28591 | 39091 ft | 566 kts | 112° |
| 2026-04-25 17:20 | 21.35873 | -34.20773 | 39093 ft | 565 kts | 112° |
| 2026-04-25 17:20 | 21.33007 | -34.12922 | 39088 ft | 565 kts | 112° |
| 2026-04-25 17:21 | 21.30137 | -34.05072 | 39090 ft | 565 kts | 112° |
| 2026-04-25 17:21 | 21.27263 | -33.97227 | 39090 ft | 565 kts | 112° |
| 2026-04-25 17:22 | 21.25338 | -33.91977 | 39089 ft | 565 kts | 112° |
| 2026-04-25 17:22 | 21.21505 | -33.81543 | 39087 ft | 565 kts | 112° |
| 2026-04-25 17:23 | 21.18619 | -33.73703 | 39075 ft | 564 kts | 112° |
| 2026-04-25 17:23 | 21.15739 | -33.65888 | 39089 ft | 563 kts | 112° |
| 2026-04-25 17:24 | 21.12877 | -33.58140 | 39080 ft | 563 kts | 112° |
| 2026-04-25 17:24 | 21.09995 | -33.50346 | 39090 ft | 562 kts | 112° |
| 2026-04-25 17:25 | 21.07112 | -33.42564 | 39090 ft | 562 kts | 112° |
| 2026-04-25 17:25 | 21.04225 | -33.34785 | 39083 ft | 562 kts | 112° |
| 2026-04-25 17:26 | 21.01336 | -33.27010 | 39085 ft | 562 kts | 112° |
| 2026-04-25 17:26 | 20.98440 | -33.19231 | 39082 ft | 562 kts | 112° |
| 2026-04-25 17:27 | 20.95537 | -33.11444 | 39086 ft | 563 kts | 112° |
| 2026-04-25 17:27 | 20.93610 | -33.06285 | 39082 ft | 563 kts | 112° |
| 2026-04-25 17:28 | 20.89715 | -32.95868 | 39082 ft | 564 kts | 112° |
| 2026-04-25 17:28 | 20.86814 | -32.88125 | 39088 ft | 565 kts | 112° |
| 2026-04-25 17:29 | 20.83889 | -32.80330 | 39064 ft | 565 kts | 112° |
| 2026-04-25 17:29 | 20.80960 | -32.72537 | 39082 ft | 564 kts | 113° |
| 2026-04-25 17:30 | 20.78029 | -32.64749 | 39074 ft | 564 kts | 113° |
| 2026-04-25 17:30 | 20.75094 | -32.56967 | 39076 ft | 564 kts | 113° |
| 2026-04-25 17:31 | 20.72176 | -32.49239 | 39073 ft | 564 kts | 113° |
| 2026-04-25 17:31 | 20.69235 | -32.41463 | 39073 ft | 564 kts | 113° |
| 2026-04-25 17:32 | 20.66292 | -32.33694 | 39063 ft | 564 kts | 113° |
| 2026-04-25 17:32 | 20.63348 | -32.25935 | 39066 ft | 563 kts | 113° |
| 2026-04-25 17:33 | 20.60901 | -32.19494 | 39073 ft | 563 kts | 113° |
| 2026-04-25 17:33 | 20.57954 | -32.11749 | 39069 ft | 563 kts | 113° |
| 2026-04-25 17:34 | 20.55006 | -32.04011 | 39066 ft | 563 kts | 113° |
| 2026-04-25 17:34 | 20.52056 | -31.96282 | 39065 ft | 562 kts | 113° |
| 2026-04-25 17:35 | 20.49100 | -31.88550 | 39068 ft | 562 kts | 113° |
| 2026-04-25 17:35 | 20.46148 | -31.80837 | 39063 ft | 561 kts | 113° |
| 2026-04-25 17:36 | 20.43195 | -31.73132 | 39062 ft | 561 kts | 113° |
| 2026-04-25 17:36 | 20.40082 | -31.65506 | 39058 ft | 560 kts | 116° |
| 2026-04-25 17:37 | 20.36722 | -31.58022 | 39061 ft | 560 kts | 117° |
| 2026-04-25 17:37 | 20.33370 | -31.50595 | 39067 ft | 560 kts | 117° |
| 2026-04-25 17:38 | 20.30580 | -31.44314 | 39063 ft | 560 kts | 116° |
| 2026-04-25 17:38 | 20.26737 | -31.35583 | 39056 ft | 559 kts | 116° |
| 2026-04-25 17:39 | 20.23435 | -31.28079 | 39051 ft | 559 kts | 116° |
| 2026-04-25 17:39 | 20.20127 | -31.20585 | 39057 ft | 558 kts | 116° |
| 2026-04-25 17:40 | 20.16819 | -31.13109 | 39054 ft | 558 kts | 116° |
| 2026-04-25 17:40 | 20.13506 | -31.05633 | 39053 ft | 558 kts | 116° |
| 2026-04-25 17:41 | 20.10191 | -30.98162 | 39053 ft | 558 kts | 116° |
| 2026-04-25 17:41 | 20.06875 | -30.90698 | 39054 ft | 557 kts | 116° |
| 2026-04-25 17:42 | 20.03559 | -30.83244 | 39057 ft | 557 kts | 116° |
| 2026-04-25 17:42 | 20.00266 | -30.75852 | 39054 ft | 556 kts | 116° |
| 2026-04-25 17:43 | 19.96950 | -30.68418 | 39055 ft | 556 kts | 116° |
| 2026-04-25 17:43 | 19.93628 | -30.60982 | 39054 ft | 556 kts | 116° |
| 2026-04-25 17:44 | 19.90311 | -30.53564 | 39053 ft | 556 kts | 116° |
| 2026-04-25 17:44 | 19.86981 | -30.46130 | 39044 ft | 556 kts | 116° |
| 2026-04-25 17:45 | 19.84220 | -30.39972 | 39044 ft | 555 kts | 116° |
| 2026-04-25 17:45 | 19.80336 | -30.31324 | 39061 ft | 554 kts | 116° |
| 2026-04-25 17:46 | 19.77017 | -30.23943 | 39045 ft | 554 kts | 117° |
| 2026-04-25 17:46 | 19.73711 | -30.16601 | 39042 ft | 554 kts | 117° |
| 2026-04-25 17:47 | 19.70388 | -30.09231 | 39051 ft | 553 kts | 117° |
| 2026-04-25 17:47 | 19.67061 | -30.01863 | 39046 ft | 553 kts | 117° |
| 2026-04-25 17:48 | 19.62077 | -29.90841 | 39046 ft | 552 kts | 117° |
| 2026-04-25 17:49 | 19.58753 | -29.83504 | 39043 ft | 551 kts | 117° |
| 2026-04-25 17:49 | 19.55427 | -29.76169 | 39035 ft | 551 kts | 117° |
| 2026-04-25 17:50 | 19.52098 | -29.68840 | 39049 ft | 551 kts | 117° |
| 2026-04-25 17:50 | 19.48768 | -29.61517 | 39048 ft | 552 kts | 117° |
| 2026-04-25 17:51 | 19.45434 | -29.54194 | 39040 ft | 551 kts | 117° |
| 2026-04-25 17:51 | 19.42100 | -29.46880 | 39038 ft | 551 kts | 117° |
| 2026-04-25 17:52 | 19.38789 | -29.39629 | 39037 ft | 550 kts | 117° |
| 2026-04-25 17:52 | 19.35456 | -29.32336 | 39035 ft | 550 kts | 117° |
| 2026-04-25 17:53 | 19.32117 | -29.25042 | 39036 ft | 550 kts | 117° |
| 2026-04-25 17:53 | 19.28781 | -29.17761 | 39040 ft | 550 kts | 117° |
| 2026-04-25 17:54 | 19.25439 | -29.10478 | 39026 ft | 550 kts | 117° |
| 2026-04-25 17:54 | 19.22098 | -29.03205 | 39032 ft | 549 kts | 117° |
| 2026-04-25 17:55 | 19.18781 | -28.95994 | 39031 ft | 548 kts | 117° |
| 2026-04-25 17:55 | 19.15437 | -28.88733 | 39032 ft | 548 kts | 117° |
| 2026-04-25 17:56 | 19.12089 | -28.81474 | 39035 ft | 548 kts | 117° |
| 2026-04-25 17:56 | 19.08748 | -28.74238 | 39027 ft | 548 kts | 117° |
| 2026-04-25 17:57 | 19.05402 | -28.67000 | 39027 ft | 548 kts | 117° |
| 2026-04-25 17:57 | 19.02051 | -28.59760 | 39021 ft | 548 kts | 117° |
| 2026-04-25 17:58 | 18.98699 | -28.52528 | 39027 ft | 548 kts | 117° |
| 2026-04-25 17:58 | 18.95368 | -28.45350 | 39025 ft | 548 kts | 117° |
| 2026-04-25 17:59 | 18.92010 | -28.38122 | 39019 ft | 548 kts | 117° |
| 2026-04-25 17:59 | 18.88644 | -28.30887 | 39022 ft | 548 kts | 117° |
| 2026-04-25 18:00 | 18.85279 | -28.23662 | 39019 ft | 548 kts | 118° |
| 2026-04-25 18:00 | 18.81907 | -28.16432 | 39013 ft | 548 kts | 118° |
| 2026-04-25 18:01 | 18.78538 | -28.09215 | 39024 ft | 547 kts | 118° |
| 2026-04-25 18:01 | 18.75173 | -28.02016 | 39021 ft | 547 kts | 118° |
| 2026-04-25 18:02 | 18.71830 | -27.94873 | 39021 ft | 546 kts | 118° |
| 2026-04-25 18:02 | 18.68465 | -27.87693 | 39021 ft | 545 kts | 118° |
| 2026-04-25 18:03 | 18.65101 | -27.80523 | 39022 ft | 545 kts | 118° |
| 2026-04-25 18:03 | 18.61740 | -27.73368 | 39021 ft | 544 kts | 118° |
| 2026-04-25 18:04 | 18.58377 | -27.66217 | 39014 ft | 544 kts | 118° |
| 2026-04-25 18:04 | 18.55040 | -27.59130 | 39017 ft | 543 kts | 118° |
| 2026-04-25 18:05 | 18.51679 | -27.52001 | 39018 ft | 543 kts | 118° |
| 2026-04-25 18:05 | 18.48316 | -27.44875 | 39022 ft | 543 kts | 118° |
| 2026-04-25 18:06 | 18.44948 | -27.37747 | 39016 ft | 543 kts | 118° |
| 2026-04-25 18:06 | 18.41574 | -27.30616 | 39018 ft | 544 kts | 118° |
| 2026-04-25 18:07 | 18.38197 | -27.23486 | 39017 ft | 544 kts | 118° |
| 2026-04-25 18:07 | 18.34811 | -27.16345 | 39005 ft | 544 kts | 118° |
| 2026-04-25 18:08 | 18.31423 | -27.09210 | 39010 ft | 544 kts | 118° |
| 2026-04-25 18:08 | 18.28052 | -27.02118 | 39012 ft | 545 kts | 118° |
| 2026-04-25 18:09 | 18.24657 | -26.94984 | 39006 ft | 545 kts | 118° |
| 2026-04-25 18:09 | 18.21259 | -26.87852 | 39005 ft | 545 kts | 118° |
| 2026-04-25 18:10 | 18.18431 | -26.81921 | 39009 ft | 545 kts | 118° |
| 2026-04-25 18:10 | 18.14454 | -26.73592 | 39005 ft | 545 kts | 118° |
| 2026-04-25 18:11 | 18.11070 | -26.66515 | 38997 ft | 544 kts | 118° |
| 2026-04-25 18:11 | 18.07668 | -26.59407 | 39003 ft | 543 kts | 118° |
| 2026-04-25 18:12 | 18.04274 | -26.52324 | 39006 ft | 542 kts | 119° |
| 2026-04-25 18:12 | 18.00876 | -26.45240 | 39001 ft | 542 kts | 119° |
| 2026-04-25 18:13 | 17.97482 | -26.38173 | 39002 ft | 541 kts | 119° |
| 2026-04-25 18:13 | 17.94085 | -26.31109 | 39002 ft | 541 kts | 119° |
| 2026-04-25 18:14 | 17.89008 | -26.20564 | 38989 ft | 541 kts | 119° |
| 2026-04-25 18:14 | 17.85612 | -26.13519 | 38996 ft | 540 kts | 119° |
| 2026-04-25 18:15 | 17.82221 | -26.06493 | 38996 ft | 539 kts | 119° |
| 2026-04-25 18:15 | 17.78801 | -25.99474 | 38992 ft | 538 kts | 120° |
| 2026-04-25 18:16 | 17.75224 | -25.92578 | 38994 ft | 538 kts | 121° |
| 2026-04-25 18:17 | 17.69788 | -25.82283 | 38995 ft | 538 kts | 121° |
| 2026-04-25 18:17 | 17.66206 | -25.75442 | 38995 ft | 538 kts | 121° |
| 2026-04-25 18:18 | 17.62616 | -25.68561 | 38992 ft | 537 kts | 121° |
| 2026-04-25 18:18 | 17.59026 | -25.61683 | 38993 ft | 537 kts | 121° |
| 2026-04-25 18:19 | 17.56041 | -25.55973 | 38991 ft | 537 kts | 121° |
| 2026-04-25 18:19 | 17.52443 | -25.49103 | 38992 ft | 537 kts | 121° |
| 2026-04-25 18:20 | 17.48260 | -25.41123 | 38990 ft | 537 kts | 121° |
| 2026-04-25 18:20 | 17.45241 | -25.35370 | 38991 ft | 537 kts | 121° |
| 2026-04-25 18:21 | 17.41640 | -25.28515 | 38992 ft | 537 kts | 121° |
| 2026-04-25 18:21 | 17.38034 | -25.21657 | 38984 ft | 537 kts | 121° |
| 2026-04-25 18:22 | 17.34432 | -25.14814 | 38987 ft | 536 kts | 121° |
| 2026-04-25 18:22 | 17.30853 | -25.08021 | 38992 ft | 536 kts | 121° |
| 2026-04-25 18:23 | 17.27252 | -25.01193 | 38986 ft | 536 kts | 121° |
| 2026-04-25 18:23 | 17.23644 | -24.94359 | 38984 ft | 536 kts | 121° |
| 2026-04-25 18:24 | 17.20037 | -24.87536 | 38981 ft | 536 kts | 121° |
| 2026-04-25 18:24 | 17.16429 | -24.80716 | 38979 ft | 536 kts | 121° |
| 2026-04-25 18:25 | 17.12821 | -24.73904 | 38993 ft | 535 kts | 121° |
| 2026-04-25 18:25 | 17.09213 | -24.67097 | 38983 ft | 535 kts | 121° |
| 2026-04-25 18:26 | 17.05606 | -24.60300 | 38969 ft | 534 kts | 121° |
| 2026-04-25 18:26 | 17.02025 | -24.53560 | 38985 ft | 534 kts | 121° |
| 2026-04-25 18:27 | 16.98421 | -24.46783 | 38954 ft | 533 kts | 121° |
| 2026-04-25 18:27 | 16.94816 | -24.40011 | 38952 ft | 533 kts | 121° |
| 2026-04-25 18:28 | 16.91210 | -24.33242 | 38967 ft | 533 kts | 122° |
| 2026-04-25 18:28 | 16.87600 | -24.26474 | 38964 ft | 533 kts | 122° |
| 2026-04-25 18:29 | 16.82192 | -24.16348 | 38951 ft | 532 kts | 122° |
| 2026-04-25 18:30 | 16.74985 | -24.02875 | 38960 ft | 531 kts | 122° |
| 2026-04-25 18:30 | 16.71384 | -23.96153 | 38981 ft | 531 kts | 122° |
| 2026-04-25 18:31 | 16.67780 | -23.89434 | 38976 ft | 530 kts | 122° |
| 2026-04-25 18:31 | 16.64175 | -23.82717 | 38957 ft | 530 kts | 122° |
| 2026-04-25 18:32 | 16.60567 | -23.76003 | 38956 ft | 531 kts | 122° |
| 2026-04-25 18:32 | 16.56957 | -23.69289 | 38948 ft | 531 kts | 122° |
| 2026-04-25 18:33 | 16.53370 | -23.62626 | 38970 ft | 531 kts | 122° |
| 2026-04-25 18:33 | 16.49754 | -23.55917 | 38951 ft | 531 kts | 122° |
| 2026-04-25 18:34 | 16.46137 | -23.49212 | 38949 ft | 531 kts | 122° |
| 2026-04-25 18:34 | 16.42514 | -23.42502 | 38951 ft | 531 kts | 122° |
| 2026-04-25 18:35 | 16.38893 | -23.35800 | 38949 ft | 531 kts | 122° |
| 2026-04-25 18:35 | 16.35269 | -23.29101 | 38956 ft | 530 kts | 122° |
| 2026-04-25 18:36 | 16.31648 | -23.22414 | 38937 ft | 530 kts | 122° |
| 2026-04-25 18:36 | 16.28028 | -23.15734 | 38950 ft | 529 kts | 122° |
| 2026-04-25 18:37 | 16.24406 | -23.09057 | 38955 ft | 529 kts | 122° |
| 2026-04-25 18:37 | 16.20789 | -23.02395 | 38955 ft | 529 kts | 122° |
| 2026-04-25 18:38 | 16.17170 | -22.95735 | 38932 ft | 529 kts | 122° |
| 2026-04-25 18:38 | 16.13552 | -22.89083 | 38946 ft | 528 kts | 122° |
| 2026-04-25 18:39 | 16.09969 | -22.82403 | 38932 ft | 529 kts | 121° |
| 2026-04-25 18:39 | 16.06445 | -22.75741 | 38944 ft | 529 kts | 121° |
| 2026-04-25 18:40 | 16.02897 | -22.69038 | 38941 ft | 528 kts | 121° |
| 2026-04-25 18:40 | 15.99346 | -22.62356 | 38942 ft | 528 kts | 121° |
| 2026-04-25 18:41 | 15.95791 | -22.55681 | 38945 ft | 528 kts | 121° |
| 2026-04-25 18:41 | 15.92233 | -22.49009 | 38944 ft | 528 kts | 121° |
| 2026-04-25 18:42 | 15.89275 | -22.43464 | 38945 ft | 527 kts | 122° |
| 2026-04-25 18:42 | 15.85115 | -22.35673 | 38943 ft | 528 kts | 122° |
| 2026-04-25 18:43 | 15.81576 | -22.29054 | 38936 ft | 527 kts | 121° |
| 2026-04-25 18:43 | 15.78016 | -22.22399 | 38941 ft | 527 kts | 121° |
| 2026-04-25 18:44 | 15.74452 | -22.15744 | 38935 ft | 527 kts | 121° |
| 2026-04-25 18:44 | 15.70887 | -22.09093 | 38934 ft | 527 kts | 121° |
| 2026-04-25 18:45 | 15.67321 | -22.02446 | 38938 ft | 527 kts | 121° |
| 2026-04-25 18:45 | 15.63755 | -21.95805 | 38937 ft | 527 kts | 121° |
| 2026-04-25 18:46 | 15.60188 | -21.89168 | 38935 ft | 527 kts | 122° |
| 2026-04-25 18:46 | 15.56619 | -21.82533 | 38934 ft | 527 kts | 122° |
| 2026-04-25 18:47 | 15.53069 | -21.75940 | 38934 ft | 526 kts | 121° |
| 2026-04-25 18:47 | 15.49497 | -21.69312 | 38932 ft | 526 kts | 121° |
| 2026-04-25 18:48 | 15.45931 | -21.62701 | 38931 ft | 526 kts | 121° |
| 2026-04-25 18:48 | 15.42354 | -21.56074 | 38931 ft | 525 kts | 121° |
| 2026-04-25 18:49 | 15.38780 | -21.49462 | 38925 ft | 525 kts | 121° |
| 2026-04-25 18:49 | 15.35204 | -21.42849 | 38927 ft | 525 kts | 121° |
| 2026-04-25 18:50 | 15.31630 | -21.36248 | 38925 ft | 525 kts | 121° |
| 2026-04-25 18:50 | 15.28080 | -21.29695 | 38915 ft | 525 kts | 121° |
| 2026-04-25 18:51 | 15.25690 | -21.25286 | 38923 ft | 524 kts | 121° |
| 2026-04-25 18:51 | 15.20933 | -21.16520 | 38925 ft | 524 kts | 121° |
| 2026-04-25 18:52 | 15.17365 | -21.09951 | 38923 ft | 523 kts | 121° |
| 2026-04-25 18:52 | 15.13798 | -21.03392 | 38922 ft | 523 kts | 121° |
| 2026-04-25 18:53 | 15.10229 | -20.96833 | 38924 ft | 522 kts | 121° |
| 2026-04-25 18:53 | 15.06661 | -20.90281 | 38926 ft | 522 kts | 121° |
| 2026-04-25 18:54 | 15.01308 | -20.80464 | 38916 ft | 523 kts | 121° |
| 2026-04-25 18:55 | 14.97762 | -20.73968 | 38924 ft | 522 kts | 121° |
| 2026-04-25 18:55 | 14.94192 | -20.67431 | 38918 ft | 521 kts | 121° |
| 2026-04-25 18:56 | 14.90625 | -20.60908 | 38917 ft | 521 kts | 121° |
| 2026-04-25 18:56 | 14.87057 | -20.54385 | 38917 ft | 520 kts | 121° |
| 2026-04-25 18:57 | 14.83492 | -20.47876 | 38911 ft | 520 kts | 121° |
| 2026-04-25 18:57 | 14.79930 | -20.41377 | 38909 ft | 519 kts | 121° |
| 2026-04-25 18:58 | 14.76393 | -20.34929 | 38912 ft | 519 kts | 121° |
| 2026-04-25 18:58 | 14.71052 | -20.25201 | 38906 ft | 519 kts | 121° |
| 2026-04-25 18:59 | 14.65599 | -20.11414 | 38916 ft | 520 kts | 109° |
| 2026-04-25 19:00 | 14.62278 | -20.00757 | 38911 ft | 519 kts | 109° |
| 2026-04-25 19:01 | 14.60052 | -19.93768 | 38485 ft | 505 kts | 109° |
| 2026-04-25 19:01 | 14.58951 | -19.90337 | 37826 ft | 502 kts | 109° |
| 2026-04-25 19:01 | 14.57849 | -19.86916 | 37106 ft | 502 kts | 109° |
| 2026-04-25 19:01 | 14.56745 | -19.83491 | 36396 ft | 502 kts | 109° |
| 2026-04-25 19:02 | 14.54564 | -19.76720 | 35301 ft | 496 kts | 108° |
| 2026-04-25 19:02 | 14.53480 | -19.73355 | 34859 ft | 491 kts | 108° |
| 2026-04-25 19:02 | 14.52406 | -19.70019 | 34403 ft | 487 kts | 108° |
| 2026-04-25 19:03 | 14.50983 | -19.65602 | 33745 ft | 483 kts | 108° |
| 2026-04-25 19:03 | 14.49230 | -19.60168 | 32857 ft | 477 kts | 108° |
| 2026-04-25 19:03 | 14.48185 | -19.56930 | 32354 ft | 474 kts | 107° |
| 2026-04-25 19:04 | 14.46122 | -19.50544 | 31580 ft | 463 kts | 107° |
| 2026-04-25 19:04 | 14.45107 | -19.47407 | 31257 ft | 459 kts | 107° |
| 2026-04-25 19:05 | 14.43087 | -19.41160 | 30622 ft | 459 kts | 107° |
| 2026-04-25 19:05 | 14.41063 | -19.34905 | 29976 ft | 458 kts | 107° |
| 2026-04-25 19:05 | 14.40395 | -19.32843 | 29732 ft | 457 kts | 107° |
| 2026-04-25 19:06 | 14.39390 | -19.29742 | 29382 ft | 455 kts | 107° |
| 2026-04-25 19:06 | 14.37073 | -19.22600 | 28624 ft | 448 kts | 107° |
| 2026-04-25 19:06 | 14.36088 | -19.19565 | 28311 ft | 445 kts | 107° |
| 2026-04-25 19:07 | 14.34450 | -19.14524 | 27795 ft | 439 kts | 107° |
| 2026-04-25 19:07 | 14.33482 | -19.11548 | 27493 ft | 436 kts | 107° |
| 2026-04-25 19:08 | 14.31568 | -19.05662 | 26893 ft | 430 kts | 107° |
| 2026-04-25 19:08 | 14.30630 | -19.02780 | 26599 ft | 427 kts | 107° |
| 2026-04-25 19:09 | 14.27819 | -18.94154 | 25935 ft | 416 kts | 107° |
| 2026-04-25 19:09 | 14.27210 | -18.92285 | 25904 ft | 416 kts | 107° |
| 2026-04-25 19:09 | 14.25005 | -18.85523 | 25804 ft | 442 kts | 107° |
| 2026-04-25 19:10 | 14.24348 | -18.83506 | 25840 ft | 454 kts | 108° |
| 2026-04-25 19:10 | 14.22971 | -18.79287 | 25863 ft | 470 kts | 108° |
| 2026-04-25 19:10 | 14.21927 | -18.76093 | 25844 ft | 468 kts | 108° |
| 2026-04-25 19:10 | 14.20896 | -18.72945 | 25584 ft | 459 kts | 108° |
| 2026-04-25 19:11 | 14.19887 | -18.69868 | 25325 ft | 448 kts | 108° |
| 2026-04-25 19:11 | 14.18902 | -18.66865 | 25108 ft | 436 kts | 108° |
| 2026-04-25 19:11 | 14.17945 | -18.63943 | 24544 ft | 436 kts | 108° |
| 2026-04-25 19:11 | 14.16974 | -18.60976 | 23904 ft | 438 kts | 108° |
| 2026-04-25 19:12 | 14.16000 | -18.58003 | 23286 ft | 438 kts | 108° |
| 2026-04-25 19:12 | 14.15025 | -18.55030 | 22546 ft | 438 kts | 108° |
| 2026-04-25 19:12 | 14.14050 | -18.52055 | 21871 ft | 438 kts | 108° |
| 2026-04-25 19:12 | 14.13075 | -18.49084 | 21233 ft | 436 kts | 109° |
| 2026-04-25 19:13 | 14.12104 | -18.46127 | 20624 ft | 435 kts | 109° |
| 2026-04-25 19:13 | 14.11135 | -18.43179 | 20027 ft | 433 kts | 109° |
| 2026-04-25 19:13 | 14.10174 | -18.40255 | 19527 ft | 429 kts | 109° |
| 2026-04-25 19:13 | 14.09221 | -18.37356 | 19043 ft | 424 kts | 109° |
| 2026-04-25 19:14 | 14.08277 | -18.34488 | 18530 ft | 422 kts | 109° |
| 2026-04-25 19:14 | 14.07654 | -18.32595 | 18173 ft | 420 kts | 109° |
| 2026-04-25 19:14 | 14.06403 | -18.28794 | 17389 ft | 416 kts | 109° |
| 2026-04-25 19:14 | 14.05490 | -18.26023 | 16887 ft | 411 kts | 110° |
| 2026-04-25 19:15 | 14.04576 | -18.23248 | 16383 ft | 407 kts | 110° |
| 2026-04-25 19:15 | 14.03671 | -18.20503 | 16035 ft | 404 kts | 110° |
| 2026-04-25 19:15 | 14.02761 | -18.17746 | 15883 ft | 407 kts | 110° |
| 2026-04-25 19:15 | 14.01854 | -18.14997 | 15864 ft | 404 kts | 110° |
| 2026-04-25 19:16 | 14.00954 | -18.12270 | 15867 ft | 403 kts | 110° |
| 2026-04-25 19:16 | 14.00050 | -18.09531 | 15869 ft | 403 kts | 110° |
| 2026-04-25 19:16 | 13.99147 | -18.06798 | 15848 ft | 402 kts | 110° |
| 2026-04-25 19:16 | 13.98255 | -18.04087 | 15485 ft | 396 kts | 108° |
| 2026-04-25 19:17 | 13.97828 | -18.01310 | 15179 ft | 397 kts | 88° |
| 2026-04-25 19:17 | 13.98358 | -17.98519 | 14969 ft | 399 kts | 70° |
| 2026-04-25 19:17 | 13.99653 | -17.96010 | 14733 ft | 395 kts | 53° |
| 2026-04-25 19:17 | 14.01314 | -17.93741 | 14528 ft | 398 kts | 52° |
| 2026-04-25 19:18 | 14.03012 | -17.91478 | 14305 ft | 400 kts | 51° |
| 2026-04-25 19:18 | 14.04711 | -17.89217 | 14076 ft | 397 kts | 52° |
| 2026-04-25 19:18 | 14.06384 | -17.86978 | 13832 ft | 392 kts | 52° |
| 2026-04-25 19:18 | 14.08032 | -17.84756 | 13599 ft | 389 kts | 52° |
| 2026-04-25 19:19 | 14.09664 | -17.82540 | 13346 ft | 387 kts | 52° |
| 2026-04-25 19:19 | 14.11276 | -17.80344 | 13117 ft | 382 kts | 53° |
| 2026-04-25 19:19 | 14.12870 | -17.78166 | 12653 ft | 379 kts | 53° |
| 2026-04-25 19:19 | 14.13922 | -17.76727 | 12196 ft | 379 kts | 53° |
| 2026-04-25 19:20 | 14.16015 | -17.73860 | 11473 ft | 375 kts | 53° |
| 2026-04-25 19:20 | 14.17574 | -17.71725 | 10942 ft | 371 kts | 53° |
| 2026-04-25 19:20 | 14.19115 | -17.69612 | 10489 ft | 366 kts | 54° |
| 2026-04-25 19:20 | 14.20634 | -17.67528 | 10013 ft | 360 kts | 54° |
| 2026-04-25 19:21 | 14.21929 | -17.65365 | 9641 ft | 350 kts | 65° |
| 2026-04-25 19:21 | 14.23420 | -17.60816 | 9181 ft | 324 kts | 76° |
| 2026-04-25 19:21 | 14.24003 | -17.58604 | 8859 ft | 317 kts | 75° |
| 2026-04-25 19:22 | 14.24579 | -17.56422 | 8419 ft | 314 kts | 75° |
| 2026-04-25 19:22 | 14.25152 | -17.54254 | 7970 ft | 313 kts | 75° |
| 2026-04-25 19:22 | 14.26292 | -17.49952 | 7087 ft | 309 kts | 73° |
| 2026-04-25 19:23 | 14.26858 | -17.47823 | 6722 ft | 305 kts | 73° |
| 2026-04-25 19:23 | 14.27951 | -17.43714 | 6203 ft | 289 kts | 72° |
| 2026-04-25 19:23 | 14.28477 | -17.41742 | 5959 ft | 283 kts | 72° |
| 2026-04-25 19:24 | 14.28995 | -17.39799 | 5717 ft | 280 kts | 72° |
| 2026-04-25 19:24 | 14.29511 | -17.37865 | 5478 ft | 280 kts | 71° |
| 2026-04-25 19:24 | 14.30538 | -17.34012 | 5003 ft | 277 kts | 71° |
| 2026-04-25 19:25 | 14.31552 | -17.30205 | 4528 ft | 274 kts | 71° |
| 2026-04-25 19:25 | 14.32049 | -17.28340 | 4288 ft | 272 kts | 71° |
| 2026-04-25 19:25 | 14.32549 | -17.26460 | 4045 ft | 271 kts | 71° |
| 2026-04-25 19:26 | 14.33052 | -17.24568 | 3804 ft | 269 kts | 72° |
| 2026-04-25 19:26 | 14.33540 | -17.22734 | 3571 ft | 267 kts | 71° |
| 2026-04-25 19:26 | 14.34029 | -17.20891 | 3334 ft | 266 kts | 71° |
| 2026-04-25 19:26 | 14.34518 | -17.19052 | 3126 ft | 264 kts | 72° |
| 2026-04-25 19:27 | 14.34995 | -17.17250 | 3055 ft | 255 kts | 71° |
| 2026-04-25 19:27 | 14.35300 | -17.16099 | 3008 ft | 247 kts | 71° |
| 2026-04-25 19:27 | 14.35906 | -17.13820 | 3009 ft | 249 kts | 71° |
| 2026-04-25 19:27 | 14.36362 | -17.12104 | 3007 ft | 246 kts | 71° |
| 2026-04-25 19:28 | 14.36810 | -17.10411 | 2989 ft | 243 kts | 71° |
| 2026-04-25 19:28 | 14.37356 | -17.08815 | 2984 ft | 232 kts | 54° |
| 2026-04-25 19:28 | 14.38513 | -17.07662 | 3007 ft | 236 kts | 29° |
| 2026-04-25 19:28 | 14.40027 | -17.07017 | 3004 ft | 235 kts | 9° |
| 2026-04-25 19:29 | 14.41632 | -17.06917 | 3005 ft | 230 kts | 359° |
| 2026-04-25 19:29 | 14.43233 | -17.06966 | 3003 ft | 230 kts | 358° |
| 2026-04-25 19:29 | 14.44831 | -17.07015 | 3004 ft | 231 kts | 359° |
| 2026-04-25 19:29 | 14.46421 | -17.07052 | 2997 ft | 231 kts | 359° |
| 2026-04-25 19:30 | 14.48012 | -17.07081 | 2998 ft | 226 kts | 360° |
| 2026-04-25 19:30 | 14.49560 | -17.07105 | 2985 ft | 217 kts | 359° |
| 2026-04-25 19:30 | 14.51007 | -17.07127 | 2973 ft | 198 kts | 359° |
| 2026-04-25 19:30 | 14.52364 | -17.07185 | 2742 ft | 191 kts | 359° |
| 2026-04-25 19:31 | 14.53676 | -17.07212 | 2479 ft | 187 kts | 360° |
| 2026-04-25 19:31 | 14.54962 | -17.07223 | 2258 ft | 183 kts | 1° |
| 2026-04-25 19:31 | 14.56232 | -17.07229 | 2004 ft | 182 kts | 1° |
| 2026-04-25 19:31 | 14.57496 | -17.07237 | 1790 ft | 181 kts | 2° |
| 2026-04-25 19:32 | 14.58730 | -17.07243 | 1589 ft | 170 kts | 1° |
| 2026-04-25 19:32 | 14.59866 | -17.07249 | 1352 ft | 157 kts | 1° |
| 2026-04-25 19:32 | 14.60911 | -17.07254 | 1140 ft | 144 kts | 360° |
| 2026-04-25 19:32 | 14.61233 | -17.07255 | 1094 ft | 141 kts | 359° |
| 2026-04-25 19:33 | 14.62802 | -17.07264 | 826 ft | 133 kts | 359° |
| 2026-04-25 19:33 | 14.63728 | -17.07266 | 681 ft | 131 kts | 1° |
| 2026-04-25 19:33 | 14.64608 | -17.07252 | 480 ft | 124 kts | 359° |
| 2026-04-25 19:33 | 14.65504 | -17.07260 | 337 ft | 132 kts | 358° |
| 2026-04-25 19:34 | 14.66399 | -17.07275 | 269 ft | 120 kts | 359° |
| 2026-04-25 19:34 | 14.67053 | -17.07282 | 272 ft | 67 kts | 359° |
| 2026-04-25 19:34 | 14.67367 | -17.07283 | 268 ft | 37 kts | 359° |
| 2026-04-25 19:34 | 14.67613 | -17.07273 | 269 ft | 33 kts | 9° |
| 2026-04-25 19:35 | 14.67805 | -17.07187 | 267 ft | 18 kts | 29° |
| 2026-04-25 19:35 | 14.67838 | -17.07126 | 268 ft | 10 kts | 100° |
| 2026-04-25 19:35 | 14.67777 | -17.07099 | 270 ft | 10 kts | 178° |
| 2026-04-25 19:35 | 14.67704 | -17.07098 | 271 ft | 10 kts | 179° |
| 2026-04-25 19:36 | 14.67626 | -17.07097 | 271 ft | 12 kts | 179° |
| 2026-04-25 19:36 | 14.67593 | -17.07096 | 271 ft | 1 kts | 179° |
| 2026-04-25 19:36 | 14.67576 | -17.07096 | 270 ft | 4 kts | 176° |
| 2026-04-25 19:36 | 14.67548 | -17.07082 | 243 ft | 5 kts | 138° |
| 2026-04-25 19:37 | 14.67537 | -17.07048 | 273 ft | 5 kts | 92° |
| 2026-04-25 19:37 | 14.67538 | -17.07012 | 275 ft | 5 kts | 80° |
| 2026-04-25 19:37 | 14.67566 | -17.06986 | 275 ft | 6 kts | 15° |
| 2026-04-25 19:37 | 14.67618 | -17.06983 | 275 ft | 9 kts | 1° |
| 2026-04-25 19:38 | 14.67684 | -17.06983 | 276 ft | 4 kts | 359° |
| 2026-04-25 19:38 | 14.67699 | -17.06983 | 276 ft | 2 kts | 359° |
| 2026-04-25 19:38 | 14.67717 | -17.06984 | 276 ft | 4 kts | 358° |
| 2026-04-25 19:38 | 14.67756 | -17.06985 | 276 ft | 9 kts | 359° |
| 2026-04-25 19:39 | 14.67871 | -17.06985 | 276 ft | 21 kts | 0° |
| 2026-04-25 19:39 | 14.67998 | -17.06986 | 276 ft | 17 kts | 353° |
| 2026-04-25 19:39 | 14.68050 | -17.07050 | 276 ft | 14 kts | 286° |
| 2026-04-25 19:39 | 14.68134 | -17.07100 | 271 ft | 15 kts | 358° |
| 2026-04-25 19:40 | 14.68242 | -17.07102 | 270 ft | 15 kts | 360° |
| 2026-04-25 19:40 | 14.68349 | -17.07103 | 269 ft | 15 kts | 359° |
| 2026-04-25 19:40 | 14.68456 | -17.07104 | 269 ft | 15 kts | 359° |
| 2026-04-25 19:40 | 14.68563 | -17.07105 | 270 ft | 15 kts | 359° |
| 2026-04-25 19:41 | 14.68652 | -17.07091 | 270 ft | 12 kts | 40° |
| 2026-04-25 19:41 | 14.68670 | -17.06994 | 264 ft | 16 kts | 89° |
| 2026-04-25 19:41 | 14.68709 | -17.06904 | 260 ft | 14 kts | 21° |
| 2026-04-25 19:41 | 14.68741 | -17.06899 | 260 ft | 14 kts | 5° |
| 2026-04-25 19:42 | 14.68923 | -17.06899 | 248 ft | 20 kts | 359° |
| 2026-04-25 19:42 | 14.69001 | -17.06900 | 243 ft | 6 kts | 359° |
| 2026-04-25 19:42 | 14.69046 | -17.06905 | 242 ft | 7 kts | 341° |
| 2026-04-25 19:42 | 14.69074 | -17.06941 | 242 ft | 7 kts | 280° |
| 2026-04-25 19:43 | 14.69102 | -17.06980 | 242 ft | 7 kts | 339° |
| 2026-04-25 19:43 | 14.69155 | -17.06981 | 242 ft | 8 kts | 360° |
| 2026-04-25 19:43 | 14.69197 | -17.06949 | 242 ft | 8 kts | 72° |
| 2026-04-25 19:43 | 14.69201 | -17.06894 | 242 ft | 0 kts | 88° |